<?xml version="1.0" encoding="UTF-8" standalone="no" ?>
<gpx xmlns="http://www.topografix.com/GPX/1/1" xmlns:xsi="http://www.w3.org/2001/XMLSchema-instance" xsi:schemaLocation="http://www.topografix.com/GPX/1/1 http://www.topografix.com/GPX/1/1/gpx.xsd" version="1.1" creator="VisuGPX - https://www.visugpx.com">
  <metadata>
    <name>Chalon-sur-Saône / Lyon à vélo</name>
    <desc><![CDATA[Chalon-sur-Saône / Lyon à vélo]]></desc>
  </metadata>
  <trk>
    <name><![CDATA[08-SEP-12 15:13:17]]></name>
    <trkseg>
      <trkpt lat="46.57371" lon="4.91071">
        <ele>154.43</ele>
        <time>2012-09-08T08:47:39Z</time>
      </trkpt>
      <trkpt lat="46.57371" lon="4.91071">
        <ele>154.91</ele>
        <time>2012-09-08T08:47:40Z</time>
      </trkpt>
      <trkpt lat="46.57376" lon="4.9108">
        <ele>152.51</ele>
        <time>2012-09-08T08:48:01Z</time>
      </trkpt>
      <trkpt lat="46.57376" lon="4.9108">
        <ele>155.87</ele>
        <time>2012-09-08T08:48:02Z</time>
      </trkpt>
      <trkpt lat="46.57375" lon="4.9108">
        <ele>152.99</ele>
        <time>2012-09-08T08:48:04Z</time>
      </trkpt>
      <trkpt lat="46.57375" lon="4.9108">
        <ele>156.35</ele>
        <time>2012-09-08T08:48:05Z</time>
      </trkpt>
      <trkpt lat="46.57378" lon="4.91081">
        <ele>155.87</ele>
        <time>2012-09-08T08:48:27Z</time>
      </trkpt>
      <trkpt lat="46.57378" lon="4.91081">
        <ele>156.35</ele>
        <time>2012-09-08T08:48:28Z</time>
      </trkpt>
      <trkpt lat="46.57376" lon="4.9108">
        <ele>159.72</ele>
        <time>2012-09-08T08:48:32Z</time>
      </trkpt>
      <trkpt lat="46.57377" lon="4.91082">
        <ele>163.08</ele>
        <time>2012-09-08T08:48:36Z</time>
      </trkpt>
      <trkpt lat="46.57376" lon="4.91083">
        <ele>167.41</ele>
        <time>2012-09-08T08:48:40Z</time>
      </trkpt>
      <trkpt lat="46.57376" lon="4.91083">
        <ele>170.77</ele>
        <time>2012-09-08T08:48:46Z</time>
      </trkpt>
      <trkpt lat="46.57376" lon="4.91083">
        <ele>171.25</ele>
        <time>2012-09-08T08:48:47Z</time>
      </trkpt>
      <trkpt lat="46.57376" lon="4.91084">
        <ele>172.69</ele>
        <time>2012-09-08T08:48:50Z</time>
      </trkpt>
      <trkpt lat="46.57377" lon="4.91083">
        <ele>176.06</ele>
        <time>2012-09-08T08:48:55Z</time>
      </trkpt>
      <trkpt lat="46.57377" lon="4.91083">
        <ele>179.42</ele>
        <time>2012-09-08T08:49:03Z</time>
      </trkpt>
      <trkpt lat="46.57377" lon="4.91082">
        <ele>183.27</ele>
        <time>2012-09-08T08:49:20Z</time>
      </trkpt>
      <trkpt lat="46.57375" lon="4.91083">
        <ele>182.31</ele>
        <time>2012-09-08T08:49:46Z</time>
      </trkpt>
      <trkpt lat="46.57374" lon="4.91079">
        <ele>181.83</ele>
        <time>2012-09-08T08:50:01Z</time>
      </trkpt>
      <trkpt lat="46.57373" lon="4.91079">
        <ele>182.31</ele>
        <time>2012-09-08T08:50:06Z</time>
      </trkpt>
      <trkpt lat="46.57374" lon="4.91079">
        <ele>182.31</ele>
        <time>2012-09-08T08:50:39Z</time>
      </trkpt>
      <trkpt lat="46.57373" lon="4.91078">
        <ele>180.87</ele>
        <time>2012-09-08T08:50:43Z</time>
      </trkpt>
      <trkpt lat="46.57373" lon="4.91078">
        <ele>182.79</ele>
        <time>2012-09-08T08:50:45Z</time>
      </trkpt>
      <trkpt lat="46.57373" lon="4.91078">
        <ele>182.31</ele>
        <time>2012-09-08T08:51:07Z</time>
      </trkpt>
      <trkpt lat="46.57372" lon="4.91077">
        <ele>182.31</ele>
        <time>2012-09-08T08:51:41Z</time>
      </trkpt>
      <trkpt lat="46.57372" lon="4.91078">
        <ele>182.31</ele>
        <time>2012-09-08T08:51:55Z</time>
      </trkpt>
      <trkpt lat="46.57374" lon="4.91079">
        <ele>182.31</ele>
        <time>2012-09-08T08:52:12Z</time>
      </trkpt>
      <trkpt lat="46.57373" lon="4.91078">
        <ele>182.31</ele>
        <time>2012-09-08T08:52:14Z</time>
      </trkpt>
      <trkpt lat="46.57369" lon="4.91067">
        <ele>182.31</ele>
        <time>2012-09-08T08:52:21Z</time>
      </trkpt>
      <trkpt lat="46.57367" lon="4.91046">
        <ele>182.79</ele>
        <time>2012-09-08T08:52:29Z</time>
      </trkpt>
      <trkpt lat="46.57365" lon="4.91">
        <ele>184.23</ele>
        <time>2012-09-08T08:52:42Z</time>
      </trkpt>
      <trkpt lat="46.57371" lon="4.90963">
        <ele>184.71</ele>
        <time>2012-09-08T08:52:54Z</time>
      </trkpt>
      <trkpt lat="46.57383" lon="4.90956">
        <ele>185.19</ele>
        <time>2012-09-08T08:53:01Z</time>
      </trkpt>
      <trkpt lat="46.57409" lon="4.90971">
        <ele>183.75</ele>
        <time>2012-09-08T08:53:15Z</time>
      </trkpt>
      <trkpt lat="46.57409" lon="4.90974">
        <ele>183.75</ele>
        <time>2012-09-08T08:53:26Z</time>
      </trkpt>
      <trkpt lat="46.57408" lon="4.90995">
        <ele>183.75</ele>
        <time>2012-09-08T08:53:32Z</time>
      </trkpt>
      <trkpt lat="46.57404" lon="4.91024">
        <ele>182.79</ele>
        <time>2012-09-08T08:53:44Z</time>
      </trkpt>
      <trkpt lat="46.57403" lon="4.91029">
        <ele>182.31</ele>
        <time>2012-09-08T08:53:55Z</time>
      </trkpt>
      <trkpt lat="46.57403" lon="4.91028">
        <ele>182.31</ele>
        <time>2012-09-08T08:53:59Z</time>
      </trkpt>
      <trkpt lat="46.57403" lon="4.91031">
        <ele>182.31</ele>
        <time>2012-09-08T08:54:04Z</time>
      </trkpt>
      <trkpt lat="46.57397" lon="4.91081">
        <ele>182.31</ele>
        <time>2012-09-08T08:54:17Z</time>
      </trkpt>
      <trkpt lat="46.57392" lon="4.91142">
        <ele>182.31</ele>
        <time>2012-09-08T08:54:30Z</time>
      </trkpt>
      <trkpt lat="46.57391" lon="4.91151">
        <ele>182.31</ele>
        <time>2012-09-08T08:54:32Z</time>
      </trkpt>
      <trkpt lat="46.57382" lon="4.91164">
        <ele>181.83</ele>
        <time>2012-09-08T08:54:37Z</time>
      </trkpt>
      <trkpt lat="46.57356" lon="4.91204">
        <ele>182.31</ele>
        <time>2012-09-08T08:54:51Z</time>
      </trkpt>
      <trkpt lat="46.57355" lon="4.91208">
        <ele>181.83</ele>
        <time>2012-09-08T08:54:53Z</time>
      </trkpt>
      <trkpt lat="46.57353" lon="4.91208">
        <ele>181.83</ele>
        <time>2012-09-08T08:54:55Z</time>
      </trkpt>
      <trkpt lat="46.5735" lon="4.91217">
        <ele>181.83</ele>
        <time>2012-09-08T08:55:06Z</time>
      </trkpt>
      <trkpt lat="46.57351" lon="4.91218">
        <ele>181.83</ele>
        <time>2012-09-08T08:55:18Z</time>
      </trkpt>
      <trkpt lat="46.57352" lon="4.91219">
        <ele>181.83</ele>
        <time>2012-09-08T08:55:20Z</time>
      </trkpt>
      <trkpt lat="46.57356" lon="4.91227">
        <ele>182.31</ele>
        <time>2012-09-08T08:55:34Z</time>
      </trkpt>
      <trkpt lat="46.57357" lon="4.91228">
        <ele>181.83</ele>
        <time>2012-09-08T08:56:01Z</time>
      </trkpt>
      <trkpt lat="46.57359" lon="4.91232">
        <ele>181.83</ele>
        <time>2012-09-08T08:56:03Z</time>
      </trkpt>
      <trkpt lat="46.57381" lon="4.91232">
        <ele>182.31</ele>
        <time>2012-09-08T08:56:13Z</time>
      </trkpt>
      <trkpt lat="46.5743" lon="4.91224">
        <ele>182.31</ele>
        <time>2012-09-08T08:56:27Z</time>
      </trkpt>
      <trkpt lat="46.57489" lon="4.91212">
        <ele>182.31</ele>
        <time>2012-09-08T08:56:42Z</time>
      </trkpt>
      <trkpt lat="46.57536" lon="4.91207">
        <ele>181.83</ele>
        <time>2012-09-08T08:56:57Z</time>
      </trkpt>
      <trkpt lat="46.57536" lon="4.91207">
        <ele>181.83</ele>
        <time>2012-09-08T08:57:23Z</time>
      </trkpt>
      <trkpt lat="46.5754" lon="4.91206">
        <ele>181.83</ele>
        <time>2012-09-08T08:57:40Z</time>
      </trkpt>
      <trkpt lat="46.57541" lon="4.91206">
        <ele>181.83</ele>
        <time>2012-09-08T08:58:15Z</time>
      </trkpt>
      <trkpt lat="46.5754" lon="4.91205">
        <ele>181.83</ele>
        <time>2012-09-08T08:58:44Z</time>
      </trkpt>
      <trkpt lat="46.57541" lon="4.91205">
        <ele>181.83</ele>
        <time>2012-09-08T08:59:07Z</time>
      </trkpt>
      <trkpt lat="46.57542" lon="4.91204">
        <ele>181.83</ele>
        <time>2012-09-08T08:59:08Z</time>
      </trkpt>
      <trkpt lat="46.57544" lon="4.91203">
        <ele>181.83</ele>
        <time>2012-09-08T08:59:09Z</time>
      </trkpt>
      <trkpt lat="46.57546" lon="4.91203">
        <ele>181.83</ele>
        <time>2012-09-08T08:59:10Z</time>
      </trkpt>
      <trkpt lat="46.57549" lon="4.91201">
        <ele>181.83</ele>
        <time>2012-09-08T08:59:11Z</time>
      </trkpt>
      <trkpt lat="46.57552" lon="4.912">
        <ele>182.31</ele>
        <time>2012-09-08T08:59:12Z</time>
      </trkpt>
      <trkpt lat="46.57555" lon="4.912">
        <ele>181.83</ele>
        <time>2012-09-08T08:59:13Z</time>
      </trkpt>
      <trkpt lat="46.57583" lon="4.91192">
        <ele>181.83</ele>
        <time>2012-09-08T08:59:26Z</time>
      </trkpt>
      <trkpt lat="46.57605" lon="4.91185">
        <ele>181.83</ele>
        <time>2012-09-08T08:59:39Z</time>
      </trkpt>
      <trkpt lat="46.57641" lon="4.91183">
        <ele>181.35</ele>
        <time>2012-09-08T08:59:52Z</time>
      </trkpt>
      <trkpt lat="46.57669" lon="4.91185">
        <ele>181.35</ele>
        <time>2012-09-08T08:59:59Z</time>
      </trkpt>
      <trkpt lat="46.57745" lon="4.91189">
        <ele>181.35</ele>
        <time>2012-09-08T09:00:16Z</time>
      </trkpt>
      <trkpt lat="46.57827" lon="4.91194">
        <ele>181.35</ele>
        <time>2012-09-08T09:00:34Z</time>
      </trkpt>
      <trkpt lat="46.57894" lon="4.91203">
        <ele>181.35</ele>
        <time>2012-09-08T09:00:49Z</time>
      </trkpt>
      <trkpt lat="46.57912" lon="4.91203">
        <ele>181.35</ele>
        <time>2012-09-08T09:00:53Z</time>
      </trkpt>
      <trkpt lat="46.57993" lon="4.91199">
        <ele>181.35</ele>
        <time>2012-09-08T09:01:11Z</time>
      </trkpt>
      <trkpt lat="46.57997" lon="4.91199">
        <ele>181.35</ele>
        <time>2012-09-08T09:01:12Z</time>
      </trkpt>
      <trkpt lat="46.58001" lon="4.91199">
        <ele>181.35</ele>
        <time>2012-09-08T09:01:13Z</time>
      </trkpt>
      <trkpt lat="46.58062" lon="4.91211">
        <ele>181.35</ele>
        <time>2012-09-08T09:01:29Z</time>
      </trkpt>
      <trkpt lat="46.5808" lon="4.91216">
        <ele>181.35</ele>
        <time>2012-09-08T09:01:39Z</time>
      </trkpt>
      <trkpt lat="46.58081" lon="4.91216">
        <ele>180.87</ele>
        <time>2012-09-08T09:02:06Z</time>
      </trkpt>
      <trkpt lat="46.58081" lon="4.91214">
        <ele>181.35</ele>
        <time>2012-09-08T09:02:22Z</time>
      </trkpt>
      <trkpt lat="46.58082" lon="4.91214">
        <ele>180.87</ele>
        <time>2012-09-08T09:02:51Z</time>
      </trkpt>
      <trkpt lat="46.58083" lon="4.91214">
        <ele>180.87</ele>
        <time>2012-09-08T09:03:27Z</time>
      </trkpt>
      <trkpt lat="46.58084" lon="4.91215">
        <ele>180.87</ele>
        <time>2012-09-08T09:03:34Z</time>
      </trkpt>
      <trkpt lat="46.58085" lon="4.91215">
        <ele>180.87</ele>
        <time>2012-09-08T09:03:35Z</time>
      </trkpt>
      <trkpt lat="46.58087" lon="4.91216">
        <ele>180.87</ele>
        <time>2012-09-08T09:03:36Z</time>
      </trkpt>
      <trkpt lat="46.58089" lon="4.91217">
        <ele>180.87</ele>
        <time>2012-09-08T09:03:37Z</time>
      </trkpt>
      <trkpt lat="46.58091" lon="4.91218">
        <ele>180.87</ele>
        <time>2012-09-08T09:03:38Z</time>
      </trkpt>
      <trkpt lat="46.58093" lon="4.91219">
        <ele>180.87</ele>
        <time>2012-09-08T09:03:39Z</time>
      </trkpt>
      <trkpt lat="46.58095" lon="4.91221">
        <ele>180.87</ele>
        <time>2012-09-08T09:03:40Z</time>
      </trkpt>
      <trkpt lat="46.58135" lon="4.91238">
        <ele>180.38</ele>
        <time>2012-09-08T09:03:54Z</time>
      </trkpt>
      <trkpt lat="46.58181" lon="4.91263">
        <ele>180.38</ele>
        <time>2012-09-08T09:04:06Z</time>
      </trkpt>
      <trkpt lat="46.5826" lon="4.91305">
        <ele>180.38</ele>
        <time>2012-09-08T09:04:25Z</time>
      </trkpt>
      <trkpt lat="46.58301" lon="4.91331">
        <ele>180.38</ele>
        <time>2012-09-08T09:04:35Z</time>
      </trkpt>
      <trkpt lat="46.58369" lon="4.91378">
        <ele>180.38</ele>
        <time>2012-09-08T09:04:51Z</time>
      </trkpt>
      <trkpt lat="46.58457" lon="4.91441">
        <ele>180.38</ele>
        <time>2012-09-08T09:05:12Z</time>
      </trkpt>
      <trkpt lat="46.58517" lon="4.91477">
        <ele>180.38</ele>
        <time>2012-09-08T09:05:27Z</time>
      </trkpt>
      <trkpt lat="46.58552" lon="4.91503">
        <ele>180.38</ele>
        <time>2012-09-08T09:05:40Z</time>
      </trkpt>
      <trkpt lat="46.58619" lon="4.91545">
        <ele>180.38</ele>
        <time>2012-09-08T09:05:57Z</time>
      </trkpt>
      <trkpt lat="46.58698" lon="4.91613">
        <ele>180.38</ele>
        <time>2012-09-08T09:06:17Z</time>
      </trkpt>
      <trkpt lat="46.58754" lon="4.91674">
        <ele>179.9</ele>
        <time>2012-09-08T09:06:32Z</time>
      </trkpt>
      <trkpt lat="46.58835" lon="4.91761">
        <ele>179.9</ele>
        <time>2012-09-08T09:06:54Z</time>
      </trkpt>
      <trkpt lat="46.5889" lon="4.9182">
        <ele>179.9</ele>
        <time>2012-09-08T09:07:09Z</time>
      </trkpt>
      <trkpt lat="46.58938" lon="4.91866">
        <ele>179.9</ele>
        <time>2012-09-08T09:07:22Z</time>
      </trkpt>
      <trkpt lat="46.58941" lon="4.9187">
        <ele>179.9</ele>
        <time>2012-09-08T09:07:23Z</time>
      </trkpt>
      <trkpt lat="46.58951" lon="4.91883">
        <ele>179.9</ele>
        <time>2012-09-08T09:07:26Z</time>
      </trkpt>
      <trkpt lat="46.58998" lon="4.91959">
        <ele>179.9</ele>
        <time>2012-09-08T09:07:42Z</time>
      </trkpt>
      <trkpt lat="46.5904" lon="4.92038">
        <ele>179.9</ele>
        <time>2012-09-08T09:07:58Z</time>
      </trkpt>
      <trkpt lat="46.59052" lon="4.92055">
        <ele>179.9</ele>
        <time>2012-09-08T09:08:02Z</time>
      </trkpt>
      <trkpt lat="46.59055" lon="4.92059">
        <ele>179.9</ele>
        <time>2012-09-08T09:08:03Z</time>
      </trkpt>
      <trkpt lat="46.59058" lon="4.92063">
        <ele>179.9</ele>
        <time>2012-09-08T09:08:04Z</time>
      </trkpt>
      <trkpt lat="46.59094" lon="4.92115">
        <ele>179.9</ele>
        <time>2012-09-08T09:08:16Z</time>
      </trkpt>
      <trkpt lat="46.59098" lon="4.9212">
        <ele>179.9</ele>
        <time>2012-09-08T09:08:17Z</time>
      </trkpt>
      <trkpt lat="46.59101" lon="4.92124">
        <ele>179.9</ele>
        <time>2012-09-08T09:08:18Z</time>
      </trkpt>
      <trkpt lat="46.59114" lon="4.92137">
        <ele>179.9</ele>
        <time>2012-09-08T09:08:21Z</time>
      </trkpt>
      <trkpt lat="46.59117" lon="4.92142">
        <ele>179.9</ele>
        <time>2012-09-08T09:08:22Z</time>
      </trkpt>
      <trkpt lat="46.59121" lon="4.92146">
        <ele>179.9</ele>
        <time>2012-09-08T09:08:23Z</time>
      </trkpt>
      <trkpt lat="46.59162" lon="4.922">
        <ele>179.9</ele>
        <time>2012-09-08T09:08:36Z</time>
      </trkpt>
      <trkpt lat="46.59206" lon="4.92258">
        <ele>180.38</ele>
        <time>2012-09-08T09:08:50Z</time>
      </trkpt>
      <trkpt lat="46.5925" lon="4.92306">
        <ele>180.38</ele>
        <time>2012-09-08T09:09:03Z</time>
      </trkpt>
      <trkpt lat="46.59258" lon="4.92313">
        <ele>180.38</ele>
        <time>2012-09-08T09:09:05Z</time>
      </trkpt>
      <trkpt lat="46.593" lon="4.92359">
        <ele>180.38</ele>
        <time>2012-09-08T09:09:18Z</time>
      </trkpt>
      <trkpt lat="46.59331" lon="4.92391">
        <ele>180.38</ele>
        <time>2012-09-08T09:09:28Z</time>
      </trkpt>
      <trkpt lat="46.59335" lon="4.92395">
        <ele>179.9</ele>
        <time>2012-09-08T09:09:29Z</time>
      </trkpt>
      <trkpt lat="46.59383" lon="4.92446">
        <ele>179.9</ele>
        <time>2012-09-08T09:09:43Z</time>
      </trkpt>
      <trkpt lat="46.59418" lon="4.92478">
        <ele>179.9</ele>
        <time>2012-09-08T09:09:52Z</time>
      </trkpt>
      <trkpt lat="46.59421" lon="4.92483">
        <ele>179.9</ele>
        <time>2012-09-08T09:09:53Z</time>
      </trkpt>
      <trkpt lat="46.59473" lon="4.92552">
        <ele>179.42</ele>
        <time>2012-09-08T09:10:09Z</time>
      </trkpt>
      <trkpt lat="46.59523" lon="4.92607">
        <ele>179.42</ele>
        <time>2012-09-08T09:10:23Z</time>
      </trkpt>
      <trkpt lat="46.59527" lon="4.92611">
        <ele>179.42</ele>
        <time>2012-09-08T09:10:24Z</time>
      </trkpt>
      <trkpt lat="46.59574" lon="4.92659">
        <ele>179.42</ele>
        <time>2012-09-08T09:10:37Z</time>
      </trkpt>
      <trkpt lat="46.59592" lon="4.92671">
        <ele>179.42</ele>
        <time>2012-09-08T09:10:42Z</time>
      </trkpt>
      <trkpt lat="46.59596" lon="4.92673">
        <ele>179.9</ele>
        <time>2012-09-08T09:10:43Z</time>
      </trkpt>
      <trkpt lat="46.59645" lon="4.92705">
        <ele>179.9</ele>
        <time>2012-09-08T09:10:56Z</time>
      </trkpt>
      <trkpt lat="46.59698" lon="4.92736">
        <ele>179.9</ele>
        <time>2012-09-08T09:11:10Z</time>
      </trkpt>
      <trkpt lat="46.59761" lon="4.92777">
        <ele>179.42</ele>
        <time>2012-09-08T09:11:26Z</time>
      </trkpt>
      <trkpt lat="46.59813" lon="4.92811">
        <ele>179.42</ele>
        <time>2012-09-08T09:11:39Z</time>
      </trkpt>
      <trkpt lat="46.59817" lon="4.92813">
        <ele>179.42</ele>
        <time>2012-09-08T09:11:40Z</time>
      </trkpt>
      <trkpt lat="46.59821" lon="4.92815">
        <ele>179.42</ele>
        <time>2012-09-08T09:11:41Z</time>
      </trkpt>
      <trkpt lat="46.59852" lon="4.92827">
        <ele>179.42</ele>
        <time>2012-09-08T09:11:48Z</time>
      </trkpt>
      <trkpt lat="46.59887" lon="4.92836">
        <ele>179.42</ele>
        <time>2012-09-08T09:11:56Z</time>
      </trkpt>
      <trkpt lat="46.59926" lon="4.92838">
        <ele>179.42</ele>
        <time>2012-09-08T09:12:09Z</time>
      </trkpt>
      <trkpt lat="46.59929" lon="4.92838">
        <ele>179.42</ele>
        <time>2012-09-08T09:12:21Z</time>
      </trkpt>
      <trkpt lat="46.5993" lon="4.92837">
        <ele>179.42</ele>
        <time>2012-09-08T09:12:54Z</time>
      </trkpt>
      <trkpt lat="46.5993" lon="4.92837">
        <ele>179.42</ele>
        <time>2012-09-08T09:13:10Z</time>
      </trkpt>
      <trkpt lat="46.59928" lon="4.92837">
        <ele>179.42</ele>
        <time>2012-09-08T09:13:29Z</time>
      </trkpt>
      <trkpt lat="46.59931" lon="4.9284">
        <ele>179.42</ele>
        <time>2012-09-08T09:13:48Z</time>
      </trkpt>
      <trkpt lat="46.59966" lon="4.92873">
        <ele>178.94</ele>
        <time>2012-09-08T09:13:59Z</time>
      </trkpt>
      <trkpt lat="46.60036" lon="4.9294">
        <ele>178.94</ele>
        <time>2012-09-08T09:14:17Z</time>
      </trkpt>
      <trkpt lat="46.60045" lon="4.92948">
        <ele>178.94</ele>
        <time>2012-09-08T09:14:19Z</time>
      </trkpt>
      <trkpt lat="46.60049" lon="4.92951">
        <ele>178.94</ele>
        <time>2012-09-08T09:14:20Z</time>
      </trkpt>
      <trkpt lat="46.60053" lon="4.92953">
        <ele>178.46</ele>
        <time>2012-09-08T09:14:21Z</time>
      </trkpt>
      <trkpt lat="46.60057" lon="4.92954">
        <ele>178.94</ele>
        <time>2012-09-08T09:14:22Z</time>
      </trkpt>
      <trkpt lat="46.60061" lon="4.92956">
        <ele>178.46</ele>
        <time>2012-09-08T09:14:23Z</time>
      </trkpt>
      <trkpt lat="46.60064" lon="4.92957">
        <ele>178.94</ele>
        <time>2012-09-08T09:14:24Z</time>
      </trkpt>
      <trkpt lat="46.60075" lon="4.92961">
        <ele>178.94</ele>
        <time>2012-09-08T09:14:34Z</time>
      </trkpt>
      <trkpt lat="46.60076" lon="4.92962">
        <ele>178.94</ele>
        <time>2012-09-08T09:14:59Z</time>
      </trkpt>
      <trkpt lat="46.60075" lon="4.92963">
        <ele>178.94</ele>
        <time>2012-09-08T09:15:15Z</time>
      </trkpt>
      <trkpt lat="46.60075" lon="4.92967">
        <ele>178.94</ele>
        <time>2012-09-08T09:15:30Z</time>
      </trkpt>
      <trkpt lat="46.60077" lon="4.92968">
        <ele>178.94</ele>
        <time>2012-09-08T09:15:53Z</time>
      </trkpt>
      <trkpt lat="46.60079" lon="4.92971">
        <ele>178.94</ele>
        <time>2012-09-08T09:16:18Z</time>
      </trkpt>
      <trkpt lat="46.60082" lon="4.92974">
        <ele>178.94</ele>
        <time>2012-09-08T09:16:35Z</time>
      </trkpt>
      <trkpt lat="46.60082" lon="4.92974">
        <ele>178.94</ele>
        <time>2012-09-08T09:16:37Z</time>
      </trkpt>
      <trkpt lat="46.6008" lon="4.92973">
        <ele>178.94</ele>
        <time>2012-09-08T09:16:49Z</time>
      </trkpt>
      <trkpt lat="46.60082" lon="4.92972">
        <ele>178.94</ele>
        <time>2012-09-08T09:17:30Z</time>
      </trkpt>
      <trkpt lat="46.60082" lon="4.92973">
        <ele>178.94</ele>
        <time>2012-09-08T09:18:10Z</time>
      </trkpt>
      <trkpt lat="46.60081" lon="4.92972">
        <ele>178.94</ele>
        <time>2012-09-08T09:18:51Z</time>
      </trkpt>
      <trkpt lat="46.60082" lon="4.92973">
        <ele>178.94</ele>
        <time>2012-09-08T09:18:54Z</time>
      </trkpt>
      <trkpt lat="46.60085" lon="4.92975">
        <ele>178.94</ele>
        <time>2012-09-08T09:18:56Z</time>
      </trkpt>
      <trkpt lat="46.60086" lon="4.92977">
        <ele>178.94</ele>
        <time>2012-09-08T09:18:57Z</time>
      </trkpt>
      <trkpt lat="46.60088" lon="4.92978">
        <ele>178.94</ele>
        <time>2012-09-08T09:18:58Z</time>
      </trkpt>
      <trkpt lat="46.6009" lon="4.9298">
        <ele>178.94</ele>
        <time>2012-09-08T09:18:59Z</time>
      </trkpt>
      <trkpt lat="46.60092" lon="4.92982">
        <ele>178.94</ele>
        <time>2012-09-08T09:19:00Z</time>
      </trkpt>
      <trkpt lat="46.60094" lon="4.92983">
        <ele>178.94</ele>
        <time>2012-09-08T09:19:01Z</time>
      </trkpt>
      <trkpt lat="46.60135" lon="4.93013">
        <ele>178.94</ele>
        <time>2012-09-08T09:19:15Z</time>
      </trkpt>
      <trkpt lat="46.60185" lon="4.9305">
        <ele>179.42</ele>
        <time>2012-09-08T09:19:31Z</time>
      </trkpt>
      <trkpt lat="46.60223" lon="4.93079">
        <ele>179.42</ele>
        <time>2012-09-08T09:19:44Z</time>
      </trkpt>
      <trkpt lat="46.60256" lon="4.9311">
        <ele>179.42</ele>
        <time>2012-09-08T09:19:56Z</time>
      </trkpt>
      <trkpt lat="46.6031" lon="4.93162">
        <ele>179.42</ele>
        <time>2012-09-08T09:20:12Z</time>
      </trkpt>
      <trkpt lat="46.60367" lon="4.93225">
        <ele>178.94</ele>
        <time>2012-09-08T09:20:28Z</time>
      </trkpt>
      <trkpt lat="46.60404" lon="4.93266">
        <ele>178.94</ele>
        <time>2012-09-08T09:20:39Z</time>
      </trkpt>
      <trkpt lat="46.60407" lon="4.9327">
        <ele>178.94</ele>
        <time>2012-09-08T09:20:40Z</time>
      </trkpt>
      <trkpt lat="46.60465" lon="4.93338">
        <ele>178.94</ele>
        <time>2012-09-08T09:20:58Z</time>
      </trkpt>
      <trkpt lat="46.60528" lon="4.93406">
        <ele>178.94</ele>
        <time>2012-09-08T09:21:18Z</time>
      </trkpt>
      <trkpt lat="46.60589" lon="4.9347">
        <ele>178.94</ele>
        <time>2012-09-08T09:21:37Z</time>
      </trkpt>
      <trkpt lat="46.60645" lon="4.93531">
        <ele>178.94</ele>
        <time>2012-09-08T09:21:55Z</time>
      </trkpt>
      <trkpt lat="46.60715" lon="4.93607">
        <ele>178.94</ele>
        <time>2012-09-08T09:22:17Z</time>
      </trkpt>
      <trkpt lat="46.6077" lon="4.93672">
        <ele>178.94</ele>
        <time>2012-09-08T09:22:36Z</time>
      </trkpt>
      <trkpt lat="46.60802" lon="4.93705">
        <ele>179.42</ele>
        <time>2012-09-08T09:22:49Z</time>
      </trkpt>
      <trkpt lat="46.60842" lon="4.93744">
        <ele>179.42</ele>
        <time>2012-09-08T09:23:03Z</time>
      </trkpt>
      <trkpt lat="46.60879" lon="4.93778">
        <ele>179.42</ele>
        <time>2012-09-08T09:23:15Z</time>
      </trkpt>
      <trkpt lat="46.60936" lon="4.93827">
        <ele>179.42</ele>
        <time>2012-09-08T09:23:32Z</time>
      </trkpt>
      <trkpt lat="46.60988" lon="4.93872">
        <ele>178.94</ele>
        <time>2012-09-08T09:23:47Z</time>
      </trkpt>
      <trkpt lat="46.61021" lon="4.9389">
        <ele>179.42</ele>
        <time>2012-09-08T09:23:58Z</time>
      </trkpt>
      <trkpt lat="46.61055" lon="4.9392">
        <ele>179.9</ele>
        <time>2012-09-08T09:24:10Z</time>
      </trkpt>
      <trkpt lat="46.61105" lon="4.93961">
        <ele>179.42</ele>
        <time>2012-09-08T09:24:24Z</time>
      </trkpt>
      <trkpt lat="46.61145" lon="4.93994">
        <ele>179.42</ele>
        <time>2012-09-08T09:24:36Z</time>
      </trkpt>
      <trkpt lat="46.61197" lon="4.94035">
        <ele>179.42</ele>
        <time>2012-09-08T09:24:50Z</time>
      </trkpt>
      <trkpt lat="46.61253" lon="4.94076">
        <ele>178.94</ele>
        <time>2012-09-08T09:25:05Z</time>
      </trkpt>
      <trkpt lat="46.61306" lon="4.94106">
        <ele>179.42</ele>
        <time>2012-09-08T09:25:19Z</time>
      </trkpt>
      <trkpt lat="46.61363" lon="4.94135">
        <ele>178.94</ele>
        <time>2012-09-08T09:25:33Z</time>
      </trkpt>
      <trkpt lat="46.61436" lon="4.94153">
        <ele>178.46</ele>
        <time>2012-09-08T09:25:52Z</time>
      </trkpt>
      <trkpt lat="46.6147" lon="4.94158">
        <ele>178.94</ele>
        <time>2012-09-08T09:26:06Z</time>
      </trkpt>
      <trkpt lat="46.61472" lon="4.94159">
        <ele>178.94</ele>
        <time>2012-09-08T09:26:07Z</time>
      </trkpt>
      <trkpt lat="46.61474" lon="4.94159">
        <ele>178.94</ele>
        <time>2012-09-08T09:26:08Z</time>
      </trkpt>
      <trkpt lat="46.61522" lon="4.94168">
        <ele>178.94</ele>
        <time>2012-09-08T09:26:24Z</time>
      </trkpt>
      <trkpt lat="46.61579" lon="4.94182">
        <ele>178.94</ele>
        <time>2012-09-08T09:26:40Z</time>
      </trkpt>
      <trkpt lat="46.61616" lon="4.94189">
        <ele>178.94</ele>
        <time>2012-09-08T09:26:49Z</time>
      </trkpt>
      <trkpt lat="46.61624" lon="4.94192">
        <ele>178.94</ele>
        <time>2012-09-08T09:26:51Z</time>
      </trkpt>
      <trkpt lat="46.61691" lon="4.94206">
        <ele>179.42</ele>
        <time>2012-09-08T09:27:07Z</time>
      </trkpt>
      <trkpt lat="46.61716" lon="4.94212">
        <ele>178.94</ele>
        <time>2012-09-08T09:27:13Z</time>
      </trkpt>
      <trkpt lat="46.61724" lon="4.94214">
        <ele>179.42</ele>
        <time>2012-09-08T09:27:15Z</time>
      </trkpt>
      <trkpt lat="46.61728" lon="4.94215">
        <ele>179.42</ele>
        <time>2012-09-08T09:27:16Z</time>
      </trkpt>
      <trkpt lat="46.6176" lon="4.94228">
        <ele>179.42</ele>
        <time>2012-09-08T09:27:24Z</time>
      </trkpt>
      <trkpt lat="46.61819" lon="4.94249">
        <ele>178.94</ele>
        <time>2012-09-08T09:27:39Z</time>
      </trkpt>
      <trkpt lat="46.61873" lon="4.94266">
        <ele>178.46</ele>
        <time>2012-09-08T09:27:53Z</time>
      </trkpt>
      <trkpt lat="46.61907" lon="4.94276">
        <ele>178.46</ele>
        <time>2012-09-08T09:28:04Z</time>
      </trkpt>
      <trkpt lat="46.61949" lon="4.94294">
        <ele>178.46</ele>
        <time>2012-09-08T09:28:18Z</time>
      </trkpt>
      <trkpt lat="46.61992" lon="4.94311">
        <ele>178.46</ele>
        <time>2012-09-08T09:28:29Z</time>
      </trkpt>
      <trkpt lat="46.62072" lon="4.94347">
        <ele>178.46</ele>
        <time>2012-09-08T09:28:49Z</time>
      </trkpt>
      <trkpt lat="46.62126" lon="4.94379">
        <ele>178.46</ele>
        <time>2012-09-08T09:29:04Z</time>
      </trkpt>
      <trkpt lat="46.62147" lon="4.94392">
        <ele>178.46</ele>
        <time>2012-09-08T09:29:15Z</time>
      </trkpt>
      <trkpt lat="46.62146" lon="4.94391">
        <ele>177.98</ele>
        <time>2012-09-08T09:29:43Z</time>
      </trkpt>
      <trkpt lat="46.62145" lon="4.94392">
        <ele>177.98</ele>
        <time>2012-09-08T09:30:22Z</time>
      </trkpt>
      <trkpt lat="46.62146" lon="4.94399">
        <ele>177.98</ele>
        <time>2012-09-08T09:30:43Z</time>
      </trkpt>
      <trkpt lat="46.62171" lon="4.94419">
        <ele>178.46</ele>
        <time>2012-09-08T09:30:56Z</time>
      </trkpt>
      <trkpt lat="46.62204" lon="4.94446">
        <ele>178.46</ele>
        <time>2012-09-08T09:31:08Z</time>
      </trkpt>
      <trkpt lat="46.62241" lon="4.94479">
        <ele>177.98</ele>
        <time>2012-09-08T09:31:20Z</time>
      </trkpt>
      <trkpt lat="46.62294" lon="4.94527">
        <ele>178.46</ele>
        <time>2012-09-08T09:31:38Z</time>
      </trkpt>
      <trkpt lat="46.62328" lon="4.94561">
        <ele>178.46</ele>
        <time>2012-09-08T09:31:50Z</time>
      </trkpt>
      <trkpt lat="46.62365" lon="4.94612">
        <ele>178.46</ele>
        <time>2012-09-08T09:32:04Z</time>
      </trkpt>
      <trkpt lat="46.62398" lon="4.94659">
        <ele>178.46</ele>
        <time>2012-09-08T09:32:17Z</time>
      </trkpt>
      <trkpt lat="46.62432" lon="4.94706">
        <ele>177.98</ele>
        <time>2012-09-08T09:32:30Z</time>
      </trkpt>
      <trkpt lat="46.62469" lon="4.94759">
        <ele>177.98</ele>
        <time>2012-09-08T09:32:44Z</time>
      </trkpt>
      <trkpt lat="46.62495" lon="4.94801">
        <ele>178.46</ele>
        <time>2012-09-08T09:32:55Z</time>
      </trkpt>
      <trkpt lat="46.6253" lon="4.94864">
        <ele>177.98</ele>
        <time>2012-09-08T09:33:09Z</time>
      </trkpt>
      <trkpt lat="46.62568" lon="4.94927">
        <ele>178.46</ele>
        <time>2012-09-08T09:33:24Z</time>
      </trkpt>
      <trkpt lat="46.62596" lon="4.94971">
        <ele>178.46</ele>
        <time>2012-09-08T09:33:36Z</time>
      </trkpt>
      <trkpt lat="46.62624" lon="4.95008">
        <ele>177.98</ele>
        <time>2012-09-08T09:33:49Z</time>
      </trkpt>
      <trkpt lat="46.62649" lon="4.95043">
        <ele>177.98</ele>
        <time>2012-09-08T09:34:01Z</time>
      </trkpt>
      <trkpt lat="46.62675" lon="4.95077">
        <ele>177.98</ele>
        <time>2012-09-08T09:34:14Z</time>
      </trkpt>
      <trkpt lat="46.62704" lon="4.95108">
        <ele>178.46</ele>
        <time>2012-09-08T09:34:26Z</time>
      </trkpt>
      <trkpt lat="46.62739" lon="4.95143">
        <ele>177.98</ele>
        <time>2012-09-08T09:34:40Z</time>
      </trkpt>
      <trkpt lat="46.62767" lon="4.95169">
        <ele>178.46</ele>
        <time>2012-09-08T09:34:52Z</time>
      </trkpt>
      <trkpt lat="46.628" lon="4.95199">
        <ele>178.46</ele>
        <time>2012-09-08T09:35:04Z</time>
      </trkpt>
      <trkpt lat="46.62841" lon="4.95228">
        <ele>178.46</ele>
        <time>2012-09-08T09:35:17Z</time>
      </trkpt>
      <trkpt lat="46.62872" lon="4.95249">
        <ele>178.46</ele>
        <time>2012-09-08T09:35:29Z</time>
      </trkpt>
      <trkpt lat="46.62909" lon="4.9527">
        <ele>178.46</ele>
        <time>2012-09-08T09:35:42Z</time>
      </trkpt>
      <trkpt lat="46.6293" lon="4.95272">
        <ele>178.46</ele>
        <time>2012-09-08T09:35:50Z</time>
      </trkpt>
      <trkpt lat="46.62932" lon="4.95272">
        <ele>178.46</ele>
        <time>2012-09-08T09:35:51Z</time>
      </trkpt>
      <trkpt lat="46.62969" lon="4.9529">
        <ele>178.46</ele>
        <time>2012-09-08T09:36:05Z</time>
      </trkpt>
      <trkpt lat="46.63009" lon="4.95306">
        <ele>178.46</ele>
        <time>2012-09-08T09:36:19Z</time>
      </trkpt>
      <trkpt lat="46.63027" lon="4.95316">
        <ele>178.46</ele>
        <time>2012-09-08T09:36:32Z</time>
      </trkpt>
      <trkpt lat="46.63028" lon="4.95315">
        <ele>178.46</ele>
        <time>2012-09-08T09:36:58Z</time>
      </trkpt>
      <trkpt lat="46.63029" lon="4.95317">
        <ele>178.46</ele>
        <time>2012-09-08T09:37:30Z</time>
      </trkpt>
      <trkpt lat="46.63034" lon="4.95325">
        <ele>178.46</ele>
        <time>2012-09-08T09:37:47Z</time>
      </trkpt>
      <trkpt lat="46.63037" lon="4.95322">
        <ele>178.46</ele>
        <time>2012-09-08T09:38:19Z</time>
      </trkpt>
      <trkpt lat="46.63038" lon="4.95321">
        <ele>178.46</ele>
        <time>2012-09-08T09:38:42Z</time>
      </trkpt>
      <trkpt lat="46.63038" lon="4.95322">
        <ele>178.46</ele>
        <time>2012-09-08T09:39:07Z</time>
      </trkpt>
      <trkpt lat="46.63039" lon="4.95322">
        <ele>178.46</ele>
        <time>2012-09-08T09:39:08Z</time>
      </trkpt>
      <trkpt lat="46.63041" lon="4.95323">
        <ele>178.46</ele>
        <time>2012-09-08T09:39:09Z</time>
      </trkpt>
      <trkpt lat="46.63042" lon="4.95324">
        <ele>178.46</ele>
        <time>2012-09-08T09:39:10Z</time>
      </trkpt>
      <trkpt lat="46.63044" lon="4.95325">
        <ele>178.46</ele>
        <time>2012-09-08T09:39:11Z</time>
      </trkpt>
      <trkpt lat="46.63045" lon="4.95326">
        <ele>178.46</ele>
        <time>2012-09-08T09:39:12Z</time>
      </trkpt>
      <trkpt lat="46.63086" lon="4.95349">
        <ele>177.98</ele>
        <time>2012-09-08T09:39:25Z</time>
      </trkpt>
      <trkpt lat="46.63128" lon="4.95368">
        <ele>178.46</ele>
        <time>2012-09-08T09:39:37Z</time>
      </trkpt>
      <trkpt lat="46.63164" lon="4.95383">
        <ele>178.46</ele>
        <time>2012-09-08T09:39:49Z</time>
      </trkpt>
      <trkpt lat="46.63203" lon="4.95397">
        <ele>178.94</ele>
        <time>2012-09-08T09:40:02Z</time>
      </trkpt>
      <trkpt lat="46.6325" lon="4.95413">
        <ele>178.94</ele>
        <time>2012-09-08T09:40:16Z</time>
      </trkpt>
      <trkpt lat="46.63297" lon="4.95422">
        <ele>178.94</ele>
        <time>2012-09-08T09:40:30Z</time>
      </trkpt>
      <trkpt lat="46.63346" lon="4.95424">
        <ele>178.46</ele>
        <time>2012-09-08T09:40:43Z</time>
      </trkpt>
      <trkpt lat="46.63407" lon="4.95423">
        <ele>178.46</ele>
        <time>2012-09-08T09:41:00Z</time>
      </trkpt>
      <trkpt lat="46.63458" lon="4.95423">
        <ele>178.46</ele>
        <time>2012-09-08T09:41:14Z</time>
      </trkpt>
      <trkpt lat="46.63504" lon="4.95427">
        <ele>178.46</ele>
        <time>2012-09-08T09:41:28Z</time>
      </trkpt>
      <trkpt lat="46.63563" lon="4.95431">
        <ele>178.46</ele>
        <time>2012-09-08T09:41:46Z</time>
      </trkpt>
      <trkpt lat="46.63613" lon="4.95422">
        <ele>178.46</ele>
        <time>2012-09-08T09:42:01Z</time>
      </trkpt>
      <trkpt lat="46.63653" lon="4.95423">
        <ele>178.46</ele>
        <time>2012-09-08T09:42:13Z</time>
      </trkpt>
      <trkpt lat="46.63704" lon="4.95436">
        <ele>177.98</ele>
        <time>2012-09-08T09:42:28Z</time>
      </trkpt>
      <trkpt lat="46.63758" lon="4.95435">
        <ele>178.46</ele>
        <time>2012-09-08T09:42:43Z</time>
      </trkpt>
      <trkpt lat="46.63813" lon="4.95433">
        <ele>177.98</ele>
        <time>2012-09-08T09:42:58Z</time>
      </trkpt>
      <trkpt lat="46.63856" lon="4.95428">
        <ele>177.98</ele>
        <time>2012-09-08T09:43:11Z</time>
      </trkpt>
      <trkpt lat="46.63913" lon="4.9541">
        <ele>177.98</ele>
        <time>2012-09-08T09:43:28Z</time>
      </trkpt>
      <trkpt lat="46.63962" lon="4.95394">
        <ele>177.98</ele>
        <time>2012-09-08T09:43:42Z</time>
      </trkpt>
      <trkpt lat="46.64011" lon="4.95369">
        <ele>177.98</ele>
        <time>2012-09-08T09:43:56Z</time>
      </trkpt>
      <trkpt lat="46.64064" lon="4.95344">
        <ele>177.98</ele>
        <time>2012-09-08T09:44:10Z</time>
      </trkpt>
      <trkpt lat="46.64073" lon="4.95342">
        <ele>177.98</ele>
        <time>2012-09-08T09:44:12Z</time>
      </trkpt>
      <trkpt lat="46.64077" lon="4.95342">
        <ele>177.5</ele>
        <time>2012-09-08T09:44:13Z</time>
      </trkpt>
      <trkpt lat="46.64081" lon="4.95341">
        <ele>177.98</ele>
        <time>2012-09-08T09:44:14Z</time>
      </trkpt>
      <trkpt lat="46.64085" lon="4.95341">
        <ele>177.98</ele>
        <time>2012-09-08T09:44:15Z</time>
      </trkpt>
      <trkpt lat="46.64089" lon="4.9534">
        <ele>177.98</ele>
        <time>2012-09-08T09:44:16Z</time>
      </trkpt>
      <trkpt lat="46.64092" lon="4.9534">
        <ele>177.98</ele>
        <time>2012-09-08T09:44:17Z</time>
      </trkpt>
      <trkpt lat="46.64095" lon="4.9534">
        <ele>177.98</ele>
        <time>2012-09-08T09:44:18Z</time>
      </trkpt>
      <trkpt lat="46.64098" lon="4.95339">
        <ele>177.98</ele>
        <time>2012-09-08T09:44:19Z</time>
      </trkpt>
      <trkpt lat="46.64154" lon="4.95338">
        <ele>177.98</ele>
        <time>2012-09-08T09:44:35Z</time>
      </trkpt>
      <trkpt lat="46.64214" lon="4.95332">
        <ele>177.98</ele>
        <time>2012-09-08T09:44:51Z</time>
      </trkpt>
      <trkpt lat="46.64279" lon="4.95322">
        <ele>177.98</ele>
        <time>2012-09-08T09:45:08Z</time>
      </trkpt>
      <trkpt lat="46.64349" lon="4.95318">
        <ele>177.98</ele>
        <time>2012-09-08T09:45:26Z</time>
      </trkpt>
      <trkpt lat="46.64395" lon="4.95318">
        <ele>177.98</ele>
        <time>2012-09-08T09:45:40Z</time>
      </trkpt>
      <trkpt lat="46.64447" lon="4.95321">
        <ele>177.98</ele>
        <time>2012-09-08T09:45:55Z</time>
      </trkpt>
      <trkpt lat="46.64496" lon="4.95331">
        <ele>177.98</ele>
        <time>2012-09-08T09:46:08Z</time>
      </trkpt>
      <trkpt lat="46.64533" lon="4.95343">
        <ele>177.98</ele>
        <time>2012-09-08T09:46:21Z</time>
      </trkpt>
      <trkpt lat="46.64572" lon="4.95359">
        <ele>178.46</ele>
        <time>2012-09-08T09:46:33Z</time>
      </trkpt>
      <trkpt lat="46.6461" lon="4.95367">
        <ele>179.9</ele>
        <time>2012-09-08T09:46:46Z</time>
      </trkpt>
      <trkpt lat="46.64653" lon="4.95365">
        <ele>178.46</ele>
        <time>2012-09-08T09:46:56Z</time>
      </trkpt>
      <trkpt lat="46.64657" lon="4.95364">
        <ele>178.46</ele>
        <time>2012-09-08T09:46:57Z</time>
      </trkpt>
      <trkpt lat="46.64661" lon="4.95364">
        <ele>178.46</ele>
        <time>2012-09-08T09:46:58Z</time>
      </trkpt>
      <trkpt lat="46.64676" lon="4.95359">
        <ele>177.98</ele>
        <time>2012-09-08T09:47:07Z</time>
      </trkpt>
      <trkpt lat="46.64676" lon="4.95359">
        <ele>177.98</ele>
        <time>2012-09-08T09:47:40Z</time>
      </trkpt>
      <trkpt lat="46.64677" lon="4.9536">
        <ele>177.98</ele>
        <time>2012-09-08T09:48:18Z</time>
      </trkpt>
      <trkpt lat="46.64676" lon="4.95359">
        <ele>178.46</ele>
        <time>2012-09-08T09:49:01Z</time>
      </trkpt>
      <trkpt lat="46.64677" lon="4.9536">
        <ele>178.46</ele>
        <time>2012-09-08T09:49:18Z</time>
      </trkpt>
      <trkpt lat="46.64687" lon="4.95359">
        <ele>178.46</ele>
        <time>2012-09-08T09:49:39Z</time>
      </trkpt>
      <trkpt lat="46.64726" lon="4.95352">
        <ele>178.46</ele>
        <time>2012-09-08T09:49:52Z</time>
      </trkpt>
      <trkpt lat="46.64789" lon="4.95346">
        <ele>178.94</ele>
        <time>2012-09-08T09:50:09Z</time>
      </trkpt>
      <trkpt lat="46.64838" lon="4.95343">
        <ele>179.42</ele>
        <time>2012-09-08T09:50:24Z</time>
      </trkpt>
      <trkpt lat="46.64886" lon="4.95339">
        <ele>179.42</ele>
        <time>2012-09-08T09:50:39Z</time>
      </trkpt>
      <trkpt lat="46.64925" lon="4.95337">
        <ele>179.42</ele>
        <time>2012-09-08T09:50:52Z</time>
      </trkpt>
      <trkpt lat="46.64925" lon="4.95337">
        <ele>179.42</ele>
        <time>2012-09-08T09:51:04Z</time>
      </trkpt>
      <trkpt lat="46.64932" lon="4.95336">
        <ele>179.42</ele>
        <time>2012-09-08T09:51:28Z</time>
      </trkpt>
      <trkpt lat="46.64976" lon="4.95331">
        <ele>179.42</ele>
        <time>2012-09-08T09:51:41Z</time>
      </trkpt>
      <trkpt lat="46.65039" lon="4.95323">
        <ele>179.9</ele>
        <time>2012-09-08T09:51:56Z</time>
      </trkpt>
      <trkpt lat="46.65044" lon="4.95323">
        <ele>179.42</ele>
        <time>2012-09-08T09:51:57Z</time>
      </trkpt>
      <trkpt lat="46.65048" lon="4.95323">
        <ele>179.42</ele>
        <time>2012-09-08T09:51:58Z</time>
      </trkpt>
      <trkpt lat="46.65052" lon="4.95323">
        <ele>179.42</ele>
        <time>2012-09-08T09:51:59Z</time>
      </trkpt>
      <trkpt lat="46.65057" lon="4.95322">
        <ele>179.42</ele>
        <time>2012-09-08T09:52:00Z</time>
      </trkpt>
      <trkpt lat="46.65126" lon="4.95298">
        <ele>179.42</ele>
        <time>2012-09-08T09:52:14Z</time>
      </trkpt>
      <trkpt lat="46.65191" lon="4.95293">
        <ele>178.46</ele>
        <time>2012-09-08T09:52:26Z</time>
      </trkpt>
      <trkpt lat="46.65202" lon="4.95294">
        <ele>178.46</ele>
        <time>2012-09-08T09:52:28Z</time>
      </trkpt>
      <trkpt lat="46.65207" lon="4.95295">
        <ele>178.46</ele>
        <time>2012-09-08T09:52:29Z</time>
      </trkpt>
      <trkpt lat="46.6525" lon="4.95307">
        <ele>178.46</ele>
        <time>2012-09-08T09:52:38Z</time>
      </trkpt>
      <trkpt lat="46.65254" lon="4.95309">
        <ele>178.46</ele>
        <time>2012-09-08T09:52:39Z</time>
      </trkpt>
      <trkpt lat="46.65294" lon="4.95316">
        <ele>178.46</ele>
        <time>2012-09-08T09:52:50Z</time>
      </trkpt>
      <trkpt lat="46.65356" lon="4.95317">
        <ele>178.46</ele>
        <time>2012-09-08T09:53:07Z</time>
      </trkpt>
      <trkpt lat="46.65398" lon="4.95323">
        <ele>177.98</ele>
        <time>2012-09-08T09:53:21Z</time>
      </trkpt>
      <trkpt lat="46.65426" lon="4.95316">
        <ele>178.46</ele>
        <time>2012-09-08T09:53:35Z</time>
      </trkpt>
      <trkpt lat="46.65426" lon="4.95315">
        <ele>178.46</ele>
        <time>2012-09-08T09:53:50Z</time>
      </trkpt>
      <trkpt lat="46.65429" lon="4.95314">
        <ele>178.46</ele>
        <time>2012-09-08T09:54:03Z</time>
      </trkpt>
      <trkpt lat="46.6543" lon="4.95314">
        <ele>178.46</ele>
        <time>2012-09-08T09:54:04Z</time>
      </trkpt>
      <trkpt lat="46.65432" lon="4.95314">
        <ele>178.46</ele>
        <time>2012-09-08T09:54:05Z</time>
      </trkpt>
      <trkpt lat="46.65434" lon="4.95314">
        <ele>178.46</ele>
        <time>2012-09-08T09:54:06Z</time>
      </trkpt>
      <trkpt lat="46.65436" lon="4.95314">
        <ele>178.46</ele>
        <time>2012-09-08T09:54:07Z</time>
      </trkpt>
      <trkpt lat="46.65457" lon="4.95311">
        <ele>178.46</ele>
        <time>2012-09-08T09:54:17Z</time>
      </trkpt>
      <trkpt lat="46.65465" lon="4.9531">
        <ele>178.46</ele>
        <time>2012-09-08T09:54:31Z</time>
      </trkpt>
      <trkpt lat="46.65468" lon="4.95312">
        <ele>178.46</ele>
        <time>2012-09-08T09:54:35Z</time>
      </trkpt>
      <trkpt lat="46.65469" lon="4.95312">
        <ele>178.46</ele>
        <time>2012-09-08T09:54:36Z</time>
      </trkpt>
      <trkpt lat="46.65471" lon="4.95311">
        <ele>178.46</ele>
        <time>2012-09-08T09:54:37Z</time>
      </trkpt>
      <trkpt lat="46.65502" lon="4.95305">
        <ele>178.46</ele>
        <time>2012-09-08T09:54:48Z</time>
      </trkpt>
      <trkpt lat="46.65536" lon="4.95298">
        <ele>178.46</ele>
        <time>2012-09-08T09:55:01Z</time>
      </trkpt>
      <trkpt lat="46.65573" lon="4.95291">
        <ele>178.46</ele>
        <time>2012-09-08T09:55:13Z</time>
      </trkpt>
      <trkpt lat="46.6562" lon="4.95262">
        <ele>178.46</ele>
        <time>2012-09-08T09:55:27Z</time>
      </trkpt>
      <trkpt lat="46.65663" lon="4.95232">
        <ele>177.98</ele>
        <time>2012-09-08T09:55:40Z</time>
      </trkpt>
      <trkpt lat="46.65701" lon="4.95209">
        <ele>177.98</ele>
        <time>2012-09-08T09:55:53Z</time>
      </trkpt>
      <trkpt lat="46.65756" lon="4.9519">
        <ele>178.46</ele>
        <time>2012-09-08T09:56:08Z</time>
      </trkpt>
      <trkpt lat="46.65802" lon="4.95167">
        <ele>177.98</ele>
        <time>2012-09-08T09:56:21Z</time>
      </trkpt>
      <trkpt lat="46.65835" lon="4.95141">
        <ele>177.98</ele>
        <time>2012-09-08T09:56:32Z</time>
      </trkpt>
      <trkpt lat="46.65873" lon="4.9512">
        <ele>178.46</ele>
        <time>2012-09-08T09:56:44Z</time>
      </trkpt>
      <trkpt lat="46.65924" lon="4.95093">
        <ele>177.98</ele>
        <time>2012-09-08T09:56:59Z</time>
      </trkpt>
      <trkpt lat="46.65978" lon="4.95062">
        <ele>177.98</ele>
        <time>2012-09-08T09:57:16Z</time>
      </trkpt>
      <trkpt lat="46.66024" lon="4.95034">
        <ele>177.98</ele>
        <time>2012-09-08T09:57:30Z</time>
      </trkpt>
      <trkpt lat="46.66083" lon="4.94994">
        <ele>177.98</ele>
        <time>2012-09-08T09:57:48Z</time>
      </trkpt>
      <trkpt lat="46.66134" lon="4.94967">
        <ele>178.46</ele>
        <time>2012-09-08T09:58:04Z</time>
      </trkpt>
      <trkpt lat="46.66179" lon="4.94938">
        <ele>177.98</ele>
        <time>2012-09-08T09:58:18Z</time>
      </trkpt>
      <trkpt lat="46.66219" lon="4.94918">
        <ele>178.46</ele>
        <time>2012-09-08T09:58:31Z</time>
      </trkpt>
      <trkpt lat="46.66266" lon="4.94887">
        <ele>178.46</ele>
        <time>2012-09-08T09:58:45Z</time>
      </trkpt>
      <trkpt lat="46.66308" lon="4.94863">
        <ele>177.5</ele>
        <time>2012-09-08T09:58:58Z</time>
      </trkpt>
      <trkpt lat="46.66313" lon="4.9486">
        <ele>177.5</ele>
        <time>2012-09-08T09:59:18Z</time>
      </trkpt>
      <trkpt lat="46.66318" lon="4.94858">
        <ele>177.5</ele>
        <time>2012-09-08T09:59:25Z</time>
      </trkpt>
      <trkpt lat="46.66325" lon="4.94853">
        <ele>177.5</ele>
        <time>2012-09-08T09:59:29Z</time>
      </trkpt>
      <trkpt lat="46.66357" lon="4.94835">
        <ele>178.46</ele>
        <time>2012-09-08T09:59:43Z</time>
      </trkpt>
      <trkpt lat="46.66384" lon="4.94832">
        <ele>177.98</ele>
        <time>2012-09-08T09:59:54Z</time>
      </trkpt>
      <trkpt lat="46.66425" lon="4.94828">
        <ele>177.98</ele>
        <time>2012-09-08T10:00:05Z</time>
      </trkpt>
      <trkpt lat="46.66477" lon="4.94824">
        <ele>177.5</ele>
        <time>2012-09-08T10:00:19Z</time>
      </trkpt>
      <trkpt lat="46.66521" lon="4.94818">
        <ele>177.98</ele>
        <time>2012-09-08T10:00:32Z</time>
      </trkpt>
      <trkpt lat="46.66566" lon="4.94809">
        <ele>177.98</ele>
        <time>2012-09-08T10:00:45Z</time>
      </trkpt>
      <trkpt lat="46.6662" lon="4.94803">
        <ele>177.98</ele>
        <time>2012-09-08T10:00:59Z</time>
      </trkpt>
      <trkpt lat="46.66674" lon="4.94796">
        <ele>177.98</ele>
        <time>2012-09-08T10:01:13Z</time>
      </trkpt>
      <trkpt lat="46.66721" lon="4.9479">
        <ele>177.5</ele>
        <time>2012-09-08T10:01:27Z</time>
      </trkpt>
      <trkpt lat="46.66763" lon="4.9479">
        <ele>177.98</ele>
        <time>2012-09-08T10:01:40Z</time>
      </trkpt>
      <trkpt lat="46.66812" lon="4.94802">
        <ele>177.98</ele>
        <time>2012-09-08T10:01:55Z</time>
      </trkpt>
      <trkpt lat="46.66846" lon="4.94784">
        <ele>177.98</ele>
        <time>2012-09-08T10:02:06Z</time>
      </trkpt>
      <trkpt lat="46.66889" lon="4.94776">
        <ele>177.98</ele>
        <time>2012-09-08T10:02:20Z</time>
      </trkpt>
      <trkpt lat="46.66899" lon="4.94773">
        <ele>177.5</ele>
        <time>2012-09-08T10:02:24Z</time>
      </trkpt>
      <trkpt lat="46.66954" lon="4.94768">
        <ele>177.98</ele>
        <time>2012-09-08T10:02:40Z</time>
      </trkpt>
      <trkpt lat="46.66991" lon="4.94764">
        <ele>177.5</ele>
        <time>2012-09-08T10:02:51Z</time>
      </trkpt>
      <trkpt lat="46.67037" lon="4.94757">
        <ele>177.5</ele>
        <time>2012-09-08T10:03:04Z</time>
      </trkpt>
      <trkpt lat="46.67086" lon="4.94751">
        <ele>177.98</ele>
        <time>2012-09-08T10:03:16Z</time>
      </trkpt>
      <trkpt lat="46.67136" lon="4.94738">
        <ele>177.98</ele>
        <time>2012-09-08T10:03:29Z</time>
      </trkpt>
      <trkpt lat="46.67179" lon="4.94738">
        <ele>177.98</ele>
        <time>2012-09-08T10:03:43Z</time>
      </trkpt>
      <trkpt lat="46.67181" lon="4.94737">
        <ele>177.5</ele>
        <time>2012-09-08T10:03:49Z</time>
      </trkpt>
      <trkpt lat="46.67183" lon="4.94737">
        <ele>177.5</ele>
        <time>2012-09-08T10:03:50Z</time>
      </trkpt>
      <trkpt lat="46.67186" lon="4.94736">
        <ele>177.5</ele>
        <time>2012-09-08T10:03:52Z</time>
      </trkpt>
      <trkpt lat="46.67187" lon="4.94735">
        <ele>177.5</ele>
        <time>2012-09-08T10:03:53Z</time>
      </trkpt>
      <trkpt lat="46.67212" lon="4.9473">
        <ele>177.5</ele>
        <time>2012-09-08T10:04:10Z</time>
      </trkpt>
      <trkpt lat="46.6722" lon="4.9473">
        <ele>177.5</ele>
        <time>2012-09-08T10:04:27Z</time>
      </trkpt>
      <trkpt lat="46.6722" lon="4.94731">
        <ele>177.02</ele>
        <time>2012-09-08T10:05:10Z</time>
      </trkpt>
      <trkpt lat="46.6722" lon="4.9473">
        <ele>177.5</ele>
        <time>2012-09-08T10:05:47Z</time>
      </trkpt>
      <trkpt lat="46.6722" lon="4.9473">
        <ele>177.5</ele>
        <time>2012-09-08T10:06:18Z</time>
      </trkpt>
      <trkpt lat="46.6722" lon="4.9473">
        <ele>177.5</ele>
        <time>2012-09-08T10:06:47Z</time>
      </trkpt>
      <trkpt lat="46.6722" lon="4.94729">
        <ele>177.5</ele>
        <time>2012-09-08T10:07:10Z</time>
      </trkpt>
      <trkpt lat="46.6722" lon="4.9473">
        <ele>177.5</ele>
        <time>2012-09-08T10:07:44Z</time>
      </trkpt>
      <trkpt lat="46.67222" lon="4.9473">
        <ele>177.5</ele>
        <time>2012-09-08T10:07:45Z</time>
      </trkpt>
      <trkpt lat="46.67223" lon="4.9473">
        <ele>177.5</ele>
        <time>2012-09-08T10:07:46Z</time>
      </trkpt>
      <trkpt lat="46.67224" lon="4.94729">
        <ele>177.5</ele>
        <time>2012-09-08T10:07:47Z</time>
      </trkpt>
      <trkpt lat="46.67226" lon="4.94729">
        <ele>177.5</ele>
        <time>2012-09-08T10:07:48Z</time>
      </trkpt>
      <trkpt lat="46.67227" lon="4.94728">
        <ele>177.5</ele>
        <time>2012-09-08T10:07:49Z</time>
      </trkpt>
      <trkpt lat="46.67229" lon="4.94728">
        <ele>177.5</ele>
        <time>2012-09-08T10:07:50Z</time>
      </trkpt>
      <trkpt lat="46.67232" lon="4.94728">
        <ele>177.5</ele>
        <time>2012-09-08T10:07:51Z</time>
      </trkpt>
      <trkpt lat="46.67234" lon="4.94728">
        <ele>177.5</ele>
        <time>2012-09-08T10:07:52Z</time>
      </trkpt>
      <trkpt lat="46.67237" lon="4.94728">
        <ele>177.5</ele>
        <time>2012-09-08T10:07:53Z</time>
      </trkpt>
      <trkpt lat="46.67239" lon="4.94728">
        <ele>177.5</ele>
        <time>2012-09-08T10:07:54Z</time>
      </trkpt>
      <trkpt lat="46.67242" lon="4.94728">
        <ele>177.5</ele>
        <time>2012-09-08T10:07:55Z</time>
      </trkpt>
      <trkpt lat="46.67244" lon="4.94728">
        <ele>177.5</ele>
        <time>2012-09-08T10:07:56Z</time>
      </trkpt>
      <trkpt lat="46.67247" lon="4.94727">
        <ele>177.5</ele>
        <time>2012-09-08T10:07:57Z</time>
      </trkpt>
      <trkpt lat="46.67291" lon="4.94717">
        <ele>177.5</ele>
        <time>2012-09-08T10:08:13Z</time>
      </trkpt>
      <trkpt lat="46.67325" lon="4.94704">
        <ele>177.98</ele>
        <time>2012-09-08T10:08:27Z</time>
      </trkpt>
      <trkpt lat="46.67369" lon="4.94693">
        <ele>177.98</ele>
        <time>2012-09-08T10:08:43Z</time>
      </trkpt>
      <trkpt lat="46.67408" lon="4.94685">
        <ele>177.98</ele>
        <time>2012-09-08T10:08:57Z</time>
      </trkpt>
      <trkpt lat="46.67461" lon="4.94667">
        <ele>177.98</ele>
        <time>2012-09-08T10:09:14Z</time>
      </trkpt>
      <trkpt lat="46.67514" lon="4.94652">
        <ele>177.98</ele>
        <time>2012-09-08T10:09:30Z</time>
      </trkpt>
      <trkpt lat="46.67545" lon="4.94645">
        <ele>177.98</ele>
        <time>2012-09-08T10:09:40Z</time>
      </trkpt>
      <trkpt lat="46.67567" lon="4.94637">
        <ele>177.5</ele>
        <time>2012-09-08T10:09:53Z</time>
      </trkpt>
      <trkpt lat="46.67568" lon="4.94636">
        <ele>177.5</ele>
        <time>2012-09-08T10:10:21Z</time>
      </trkpt>
      <trkpt lat="46.67569" lon="4.94636">
        <ele>177.5</ele>
        <time>2012-09-08T10:10:53Z</time>
      </trkpt>
      <trkpt lat="46.6758" lon="4.94635">
        <ele>177.5</ele>
        <time>2012-09-08T10:11:06Z</time>
      </trkpt>
      <trkpt lat="46.67624" lon="4.94624">
        <ele>177.98</ele>
        <time>2012-09-08T10:11:21Z</time>
      </trkpt>
      <trkpt lat="46.67679" lon="4.9461">
        <ele>177.98</ele>
        <time>2012-09-08T10:11:38Z</time>
      </trkpt>
      <trkpt lat="46.67734" lon="4.94591">
        <ele>177.5</ele>
        <time>2012-09-08T10:11:54Z</time>
      </trkpt>
      <trkpt lat="46.67782" lon="4.94573">
        <ele>177.5</ele>
        <time>2012-09-08T10:12:08Z</time>
      </trkpt>
      <trkpt lat="46.6785" lon="4.94547">
        <ele>177.5</ele>
        <time>2012-09-08T10:12:28Z</time>
      </trkpt>
      <trkpt lat="46.67906" lon="4.94515">
        <ele>177.5</ele>
        <time>2012-09-08T10:12:45Z</time>
      </trkpt>
      <trkpt lat="46.67952" lon="4.94493">
        <ele>177.98</ele>
        <time>2012-09-08T10:13:00Z</time>
      </trkpt>
      <trkpt lat="46.6801" lon="4.94464">
        <ele>177.5</ele>
        <time>2012-09-08T10:13:17Z</time>
      </trkpt>
      <trkpt lat="46.68072" lon="4.94437">
        <ele>177.5</ele>
        <time>2012-09-08T10:13:35Z</time>
      </trkpt>
      <trkpt lat="46.68126" lon="4.9442">
        <ele>177.5</ele>
        <time>2012-09-08T10:13:52Z</time>
      </trkpt>
      <trkpt lat="46.68139" lon="4.94415">
        <ele>177.5</ele>
        <time>2012-09-08T10:14:02Z</time>
      </trkpt>
      <trkpt lat="46.6814" lon="4.94415">
        <ele>177.5</ele>
        <time>2012-09-08T10:14:06Z</time>
      </trkpt>
      <trkpt lat="46.68143" lon="4.94413">
        <ele>177.5</ele>
        <time>2012-09-08T10:14:08Z</time>
      </trkpt>
      <trkpt lat="46.68144" lon="4.94413">
        <ele>177.5</ele>
        <time>2012-09-08T10:14:09Z</time>
      </trkpt>
      <trkpt lat="46.68146" lon="4.94412">
        <ele>177.5</ele>
        <time>2012-09-08T10:14:10Z</time>
      </trkpt>
      <trkpt lat="46.68184" lon="4.94399">
        <ele>177.5</ele>
        <time>2012-09-08T10:14:23Z</time>
      </trkpt>
      <trkpt lat="46.68211" lon="4.94388">
        <ele>177.02</ele>
        <time>2012-09-08T10:14:33Z</time>
      </trkpt>
      <trkpt lat="46.68213" lon="4.94388">
        <ele>177.02</ele>
        <time>2012-09-08T10:14:34Z</time>
      </trkpt>
      <trkpt lat="46.68216" lon="4.94387">
        <ele>177.5</ele>
        <time>2012-09-08T10:14:35Z</time>
      </trkpt>
      <trkpt lat="46.68219" lon="4.94386">
        <ele>177.5</ele>
        <time>2012-09-08T10:14:36Z</time>
      </trkpt>
      <trkpt lat="46.68222" lon="4.94386">
        <ele>177.5</ele>
        <time>2012-09-08T10:14:37Z</time>
      </trkpt>
      <trkpt lat="46.68269" lon="4.9437">
        <ele>177.5</ele>
        <time>2012-09-08T10:14:50Z</time>
      </trkpt>
      <trkpt lat="46.68336" lon="4.94347">
        <ele>177.02</ele>
        <time>2012-09-08T10:15:07Z</time>
      </trkpt>
      <trkpt lat="46.68382" lon="4.94337">
        <ele>177.02</ele>
        <time>2012-09-08T10:15:20Z</time>
      </trkpt>
      <trkpt lat="46.68437" lon="4.94326">
        <ele>177.02</ele>
        <time>2012-09-08T10:15:36Z</time>
      </trkpt>
      <trkpt lat="46.68489" lon="4.94318">
        <ele>177.5</ele>
        <time>2012-09-08T10:15:51Z</time>
      </trkpt>
      <trkpt lat="46.68547" lon="4.94302">
        <ele>177.02</ele>
        <time>2012-09-08T10:16:07Z</time>
      </trkpt>
      <trkpt lat="46.68608" lon="4.94286">
        <ele>177.5</ele>
        <time>2012-09-08T10:16:24Z</time>
      </trkpt>
      <trkpt lat="46.68677" lon="4.94267">
        <ele>177.02</ele>
        <time>2012-09-08T10:16:42Z</time>
      </trkpt>
      <trkpt lat="46.68724" lon="4.94261">
        <ele>177.5</ele>
        <time>2012-09-08T10:16:55Z</time>
      </trkpt>
      <trkpt lat="46.68772" lon="4.94258">
        <ele>177.02</ele>
        <time>2012-09-08T10:17:09Z</time>
      </trkpt>
      <trkpt lat="46.68831" lon="4.94249">
        <ele>177.5</ele>
        <time>2012-09-08T10:17:27Z</time>
      </trkpt>
      <trkpt lat="46.68873" lon="4.94242">
        <ele>177.02</ele>
        <time>2012-09-08T10:17:40Z</time>
      </trkpt>
      <trkpt lat="46.68924" lon="4.94234">
        <ele>177.02</ele>
        <time>2012-09-08T10:17:55Z</time>
      </trkpt>
      <trkpt lat="46.68982" lon="4.94228">
        <ele>177.02</ele>
        <time>2012-09-08T10:18:12Z</time>
      </trkpt>
      <trkpt lat="46.69038" lon="4.94224">
        <ele>177.02</ele>
        <time>2012-09-08T10:18:28Z</time>
      </trkpt>
      <trkpt lat="46.69088" lon="4.94216">
        <ele>177.02</ele>
        <time>2012-09-08T10:18:43Z</time>
      </trkpt>
      <trkpt lat="46.69138" lon="4.94212">
        <ele>177.5</ele>
        <time>2012-09-08T10:18:58Z</time>
      </trkpt>
      <trkpt lat="46.69178" lon="4.94207">
        <ele>177.02</ele>
        <time>2012-09-08T10:19:11Z</time>
      </trkpt>
      <trkpt lat="46.69237" lon="4.9419">
        <ele>177.02</ele>
        <time>2012-09-08T10:19:28Z</time>
      </trkpt>
      <trkpt lat="46.69294" lon="4.94174">
        <ele>177.5</ele>
        <time>2012-09-08T10:19:44Z</time>
      </trkpt>
      <trkpt lat="46.69349" lon="4.94156">
        <ele>177.5</ele>
        <time>2012-09-08T10:20:00Z</time>
      </trkpt>
      <trkpt lat="46.69417" lon="4.94131">
        <ele>177.5</ele>
        <time>2012-09-08T10:20:19Z</time>
      </trkpt>
      <trkpt lat="46.69473" lon="4.94101">
        <ele>177.5</ele>
        <time>2012-09-08T10:20:35Z</time>
      </trkpt>
      <trkpt lat="46.6952" lon="4.9407">
        <ele>177.5</ele>
        <time>2012-09-08T10:20:50Z</time>
      </trkpt>
      <trkpt lat="46.69567" lon="4.9403">
        <ele>177.5</ele>
        <time>2012-09-08T10:21:07Z</time>
      </trkpt>
      <trkpt lat="46.69615" lon="4.93987">
        <ele>177.5</ele>
        <time>2012-09-08T10:21:24Z</time>
      </trkpt>
      <trkpt lat="46.69642" lon="4.93963">
        <ele>177.5</ele>
        <time>2012-09-08T10:21:35Z</time>
      </trkpt>
      <trkpt lat="46.69645" lon="4.93961">
        <ele>177.5</ele>
        <time>2012-09-08T10:21:36Z</time>
      </trkpt>
      <trkpt lat="46.69694" lon="4.93916">
        <ele>177.5</ele>
        <time>2012-09-08T10:21:52Z</time>
      </trkpt>
      <trkpt lat="46.69736" lon="4.93877">
        <ele>177.02</ele>
        <time>2012-09-08T10:22:07Z</time>
      </trkpt>
      <trkpt lat="46.6977" lon="4.93846">
        <ele>177.5</ele>
        <time>2012-09-08T10:22:20Z</time>
      </trkpt>
      <trkpt lat="46.69807" lon="4.93809">
        <ele>177.5</ele>
        <time>2012-09-08T10:22:35Z</time>
      </trkpt>
      <trkpt lat="46.69853" lon="4.93765">
        <ele>177.5</ele>
        <time>2012-09-08T10:22:51Z</time>
      </trkpt>
      <trkpt lat="46.69885" lon="4.93728">
        <ele>177.02</ele>
        <time>2012-09-08T10:23:04Z</time>
      </trkpt>
      <trkpt lat="46.69921" lon="4.93701">
        <ele>177.02</ele>
        <time>2012-09-08T10:23:17Z</time>
      </trkpt>
      <trkpt lat="46.69947" lon="4.93687">
        <ele>177.02</ele>
        <time>2012-09-08T10:23:28Z</time>
      </trkpt>
      <trkpt lat="46.69985" lon="4.93669">
        <ele>177.02</ele>
        <time>2012-09-08T10:23:42Z</time>
      </trkpt>
      <trkpt lat="46.70034" lon="4.93657">
        <ele>177.02</ele>
        <time>2012-09-08T10:23:56Z</time>
      </trkpt>
      <trkpt lat="46.70051" lon="4.93656">
        <ele>177.02</ele>
        <time>2012-09-08T10:24:05Z</time>
      </trkpt>
      <trkpt lat="46.70052" lon="4.93656">
        <ele>177.02</ele>
        <time>2012-09-08T10:24:26Z</time>
      </trkpt>
      <trkpt lat="46.70054" lon="4.93655">
        <ele>177.02</ele>
        <time>2012-09-08T10:24:42Z</time>
      </trkpt>
      <trkpt lat="46.70055" lon="4.93655">
        <ele>177.02</ele>
        <time>2012-09-08T10:24:43Z</time>
      </trkpt>
      <trkpt lat="46.70056" lon="4.93656">
        <ele>177.02</ele>
        <time>2012-09-08T10:24:44Z</time>
      </trkpt>
      <trkpt lat="46.70058" lon="4.93656">
        <ele>177.02</ele>
        <time>2012-09-08T10:24:45Z</time>
      </trkpt>
      <trkpt lat="46.7006" lon="4.93656">
        <ele>177.02</ele>
        <time>2012-09-08T10:24:46Z</time>
      </trkpt>
      <trkpt lat="46.70087" lon="4.93655">
        <ele>177.5</ele>
        <time>2012-09-08T10:24:58Z</time>
      </trkpt>
      <trkpt lat="46.70108" lon="4.93617">
        <ele>177.5</ele>
        <time>2012-09-08T10:25:10Z</time>
      </trkpt>
      <trkpt lat="46.70143" lon="4.93581">
        <ele>177.5</ele>
        <time>2012-09-08T10:25:23Z</time>
      </trkpt>
      <trkpt lat="46.70189" lon="4.9356">
        <ele>177.5</ele>
        <time>2012-09-08T10:25:36Z</time>
      </trkpt>
      <trkpt lat="46.70243" lon="4.93533">
        <ele>177.5</ele>
        <time>2012-09-08T10:25:52Z</time>
      </trkpt>
      <trkpt lat="46.70306" lon="4.93507">
        <ele>177.02</ele>
        <time>2012-09-08T10:26:09Z</time>
      </trkpt>
      <trkpt lat="46.7036" lon="4.93471">
        <ele>177.5</ele>
        <time>2012-09-08T10:26:25Z</time>
      </trkpt>
      <trkpt lat="46.70404" lon="4.93456">
        <ele>177.5</ele>
        <time>2012-09-08T10:26:38Z</time>
      </trkpt>
      <trkpt lat="46.70457" lon="4.93448">
        <ele>177.5</ele>
        <time>2012-09-08T10:26:53Z</time>
      </trkpt>
      <trkpt lat="46.70519" lon="4.93429">
        <ele>177.5</ele>
        <time>2012-09-08T10:27:10Z</time>
      </trkpt>
      <trkpt lat="46.70578" lon="4.93408">
        <ele>177.5</ele>
        <time>2012-09-08T10:27:25Z</time>
      </trkpt>
      <trkpt lat="46.70639" lon="4.93391">
        <ele>177.5</ele>
        <time>2012-09-08T10:27:41Z</time>
      </trkpt>
      <trkpt lat="46.70687" lon="4.9337">
        <ele>177.5</ele>
        <time>2012-09-08T10:27:55Z</time>
      </trkpt>
      <trkpt lat="46.70753" lon="4.93349">
        <ele>177.5</ele>
        <time>2012-09-08T10:28:13Z</time>
      </trkpt>
      <trkpt lat="46.70788" lon="4.93324">
        <ele>177.02</ele>
        <time>2012-09-08T10:28:25Z</time>
      </trkpt>
      <trkpt lat="46.70799" lon="4.9332">
        <ele>177.5</ele>
        <time>2012-09-08T10:28:31Z</time>
      </trkpt>
      <trkpt lat="46.70802" lon="4.93316">
        <ele>177.5</ele>
        <time>2012-09-08T10:28:44Z</time>
      </trkpt>
      <trkpt lat="46.70801" lon="4.93316">
        <ele>177.5</ele>
        <time>2012-09-08T10:28:48Z</time>
      </trkpt>
      <trkpt lat="46.70802" lon="4.93314">
        <ele>177.5</ele>
        <time>2012-09-08T10:28:49Z</time>
      </trkpt>
      <trkpt lat="46.70803" lon="4.93312">
        <ele>177.5</ele>
        <time>2012-09-08T10:28:50Z</time>
      </trkpt>
      <trkpt lat="46.70805" lon="4.93311">
        <ele>177.02</ele>
        <time>2012-09-08T10:28:51Z</time>
      </trkpt>
      <trkpt lat="46.70807" lon="4.9331">
        <ele>177.5</ele>
        <time>2012-09-08T10:28:52Z</time>
      </trkpt>
      <trkpt lat="46.70809" lon="4.93308">
        <ele>177.5</ele>
        <time>2012-09-08T10:28:53Z</time>
      </trkpt>
      <trkpt lat="46.70812" lon="4.93307">
        <ele>177.5</ele>
        <time>2012-09-08T10:28:54Z</time>
      </trkpt>
      <trkpt lat="46.70814" lon="4.93306">
        <ele>177.5</ele>
        <time>2012-09-08T10:28:55Z</time>
      </trkpt>
      <trkpt lat="46.70817" lon="4.93305">
        <ele>177.5</ele>
        <time>2012-09-08T10:28:56Z</time>
      </trkpt>
      <trkpt lat="46.70868" lon="4.93275">
        <ele>177.5</ele>
        <time>2012-09-08T10:29:12Z</time>
      </trkpt>
      <trkpt lat="46.70931" lon="4.93226">
        <ele>177.5</ele>
        <time>2012-09-08T10:29:30Z</time>
      </trkpt>
      <trkpt lat="46.7097" lon="4.93184">
        <ele>177.5</ele>
        <time>2012-09-08T10:29:43Z</time>
      </trkpt>
      <trkpt lat="46.7101" lon="4.93139">
        <ele>177.5</ele>
        <time>2012-09-08T10:29:58Z</time>
      </trkpt>
      <trkpt lat="46.71041" lon="4.93114">
        <ele>177.5</ele>
        <time>2012-09-08T10:30:09Z</time>
      </trkpt>
      <trkpt lat="46.71059" lon="4.93086">
        <ele>177.5</ele>
        <time>2012-09-08T10:30:20Z</time>
      </trkpt>
      <trkpt lat="46.71067" lon="4.93057">
        <ele>177.02</ele>
        <time>2012-09-08T10:30:33Z</time>
      </trkpt>
      <trkpt lat="46.71066" lon="4.93053">
        <ele>177.02</ele>
        <time>2012-09-08T10:30:56Z</time>
      </trkpt>
      <trkpt lat="46.71066" lon="4.93051">
        <ele>177.02</ele>
        <time>2012-09-08T10:30:57Z</time>
      </trkpt>
      <trkpt lat="46.71067" lon="4.93049">
        <ele>177.02</ele>
        <time>2012-09-08T10:30:58Z</time>
      </trkpt>
      <trkpt lat="46.71068" lon="4.93046">
        <ele>177.5</ele>
        <time>2012-09-08T10:30:59Z</time>
      </trkpt>
      <trkpt lat="46.71068" lon="4.93043">
        <ele>177.02</ele>
        <time>2012-09-08T10:31:00Z</time>
      </trkpt>
      <trkpt lat="46.71069" lon="4.93039">
        <ele>177.5</ele>
        <time>2012-09-08T10:31:01Z</time>
      </trkpt>
      <trkpt lat="46.71069" lon="4.93036">
        <ele>177.02</ele>
        <time>2012-09-08T10:31:02Z</time>
      </trkpt>
      <trkpt lat="46.71068" lon="4.93033">
        <ele>177.5</ele>
        <time>2012-09-08T10:31:03Z</time>
      </trkpt>
      <trkpt lat="46.71068" lon="4.93029">
        <ele>177.02</ele>
        <time>2012-09-08T10:31:04Z</time>
      </trkpt>
      <trkpt lat="46.71069" lon="4.93025">
        <ele>177.02</ele>
        <time>2012-09-08T10:31:05Z</time>
      </trkpt>
      <trkpt lat="46.71069" lon="4.93021">
        <ele>177.02</ele>
        <time>2012-09-08T10:31:06Z</time>
      </trkpt>
      <trkpt lat="46.71075" lon="4.93006">
        <ele>177.02</ele>
        <time>2012-09-08T10:31:11Z</time>
      </trkpt>
      <trkpt lat="46.71076" lon="4.93004">
        <ele>177.02</ele>
        <time>2012-09-08T10:31:12Z</time>
      </trkpt>
      <trkpt lat="46.71078" lon="4.93002">
        <ele>177.02</ele>
        <time>2012-09-08T10:31:13Z</time>
      </trkpt>
      <trkpt lat="46.71079" lon="4.93">
        <ele>177.5</ele>
        <time>2012-09-08T10:31:14Z</time>
      </trkpt>
      <trkpt lat="46.71081" lon="4.92997">
        <ele>177.5</ele>
        <time>2012-09-08T10:31:15Z</time>
      </trkpt>
      <trkpt lat="46.71104" lon="4.92956">
        <ele>177.5</ele>
        <time>2012-09-08T10:31:27Z</time>
      </trkpt>
      <trkpt lat="46.71121" lon="4.92899">
        <ele>177.5</ele>
        <time>2012-09-08T10:31:40Z</time>
      </trkpt>
      <trkpt lat="46.71135" lon="4.92855">
        <ele>177.5</ele>
        <time>2012-09-08T10:31:50Z</time>
      </trkpt>
      <trkpt lat="46.71155" lon="4.92819">
        <ele>177.5</ele>
        <time>2012-09-08T10:32:01Z</time>
      </trkpt>
      <trkpt lat="46.71178" lon="4.92769">
        <ele>177.5</ele>
        <time>2012-09-08T10:32:16Z</time>
      </trkpt>
      <trkpt lat="46.71198" lon="4.9274">
        <ele>177.5</ele>
        <time>2012-09-08T10:32:28Z</time>
      </trkpt>
      <trkpt lat="46.71198" lon="4.92739">
        <ele>180.87</ele>
        <time>2012-09-08T10:32:34Z</time>
      </trkpt>
      <trkpt lat="46.71198" lon="4.92739">
        <ele>177.5</ele>
        <time>2012-09-08T10:32:35Z</time>
      </trkpt>
      <trkpt lat="46.71198" lon="4.92738">
        <ele>177.98</ele>
        <time>2012-09-08T10:33:04Z</time>
      </trkpt>
      <trkpt lat="46.71198" lon="4.92739">
        <ele>177.98</ele>
        <time>2012-09-08T10:33:37Z</time>
      </trkpt>
      <trkpt lat="46.71199" lon="4.92738">
        <ele>177.5</ele>
        <time>2012-09-08T10:34:01Z</time>
      </trkpt>
      <trkpt lat="46.71201" lon="4.92734">
        <ele>177.98</ele>
        <time>2012-09-08T10:34:03Z</time>
      </trkpt>
      <trkpt lat="46.71202" lon="4.92732">
        <ele>177.98</ele>
        <time>2012-09-08T10:34:04Z</time>
      </trkpt>
      <trkpt lat="46.71205" lon="4.9273">
        <ele>177.98</ele>
        <time>2012-09-08T10:34:06Z</time>
      </trkpt>
      <trkpt lat="46.71207" lon="4.92728">
        <ele>177.98</ele>
        <time>2012-09-08T10:34:07Z</time>
      </trkpt>
      <trkpt lat="46.71208" lon="4.92725">
        <ele>177.98</ele>
        <time>2012-09-08T10:34:08Z</time>
      </trkpt>
      <trkpt lat="46.7121" lon="4.92722">
        <ele>177.98</ele>
        <time>2012-09-08T10:34:09Z</time>
      </trkpt>
      <trkpt lat="46.71211" lon="4.92719">
        <ele>177.98</ele>
        <time>2012-09-08T10:34:10Z</time>
      </trkpt>
      <trkpt lat="46.71213" lon="4.92716">
        <ele>177.98</ele>
        <time>2012-09-08T10:34:11Z</time>
      </trkpt>
      <trkpt lat="46.71245" lon="4.92665">
        <ele>177.98</ele>
        <time>2012-09-08T10:34:25Z</time>
      </trkpt>
      <trkpt lat="46.71277" lon="4.92618">
        <ele>177.98</ele>
        <time>2012-09-08T10:34:38Z</time>
      </trkpt>
      <trkpt lat="46.71314" lon="4.9258">
        <ele>177.98</ele>
        <time>2012-09-08T10:34:52Z</time>
      </trkpt>
      <trkpt lat="46.71341" lon="4.92545">
        <ele>177.98</ele>
        <time>2012-09-08T10:35:07Z</time>
      </trkpt>
      <trkpt lat="46.71372" lon="4.92504">
        <ele>177.98</ele>
        <time>2012-09-08T10:35:22Z</time>
      </trkpt>
      <trkpt lat="46.71412" lon="4.92454">
        <ele>177.98</ele>
        <time>2012-09-08T10:35:36Z</time>
      </trkpt>
      <trkpt lat="46.71426" lon="4.92437">
        <ele>177.98</ele>
        <time>2012-09-08T10:35:46Z</time>
      </trkpt>
      <trkpt lat="46.71439" lon="4.92421">
        <ele>177.98</ele>
        <time>2012-09-08T10:35:59Z</time>
      </trkpt>
      <trkpt lat="46.71471" lon="4.92379">
        <ele>178.46</ele>
        <time>2012-09-08T10:36:12Z</time>
      </trkpt>
      <trkpt lat="46.71487" lon="4.92353">
        <ele>178.46</ele>
        <time>2012-09-08T10:36:22Z</time>
      </trkpt>
      <trkpt lat="46.71488" lon="4.9235">
        <ele>178.46</ele>
        <time>2012-09-08T10:36:35Z</time>
      </trkpt>
      <trkpt lat="46.71489" lon="4.92351">
        <ele>178.46</ele>
        <time>2012-09-08T10:36:56Z</time>
      </trkpt>
      <trkpt lat="46.71489" lon="4.92351">
        <ele>177.98</ele>
        <time>2012-09-08T10:37:22Z</time>
      </trkpt>
      <trkpt lat="46.71489" lon="4.92351">
        <ele>177.5</ele>
        <time>2012-09-08T10:37:28Z</time>
      </trkpt>
      <trkpt lat="46.71488" lon="4.92344">
        <ele>182.31</ele>
        <time>2012-09-08T11:51:49Z</time>
      </trkpt>
      <trkpt lat="46.71488" lon="4.92346">
        <ele>182.31</ele>
        <time>2012-09-08T11:51:50Z</time>
      </trkpt>
      <trkpt lat="46.71482" lon="4.92345">
        <ele>178.94</ele>
        <time>2012-09-08T11:52:04Z</time>
      </trkpt>
      <trkpt lat="46.71486" lon="4.92349">
        <ele>177.02</ele>
        <time>2012-09-08T11:52:08Z</time>
      </trkpt>
      <trkpt lat="46.71486" lon="4.92344">
        <ele>173.66</ele>
        <time>2012-09-08T11:52:21Z</time>
      </trkpt>
      <trkpt lat="46.71485" lon="4.92343">
        <ele>173.17</ele>
        <time>2012-09-08T11:52:39Z</time>
      </trkpt>
      <trkpt lat="46.71495" lon="4.92323">
        <ele>173.17</ele>
        <time>2012-09-08T11:52:51Z</time>
      </trkpt>
      <trkpt lat="46.71506" lon="4.9229">
        <ele>172.69</ele>
        <time>2012-09-08T11:53:04Z</time>
      </trkpt>
      <trkpt lat="46.71528" lon="4.92233">
        <ele>172.69</ele>
        <time>2012-09-08T11:53:20Z</time>
      </trkpt>
      <trkpt lat="46.71561" lon="4.92172">
        <ele>172.69</ele>
        <time>2012-09-08T11:53:38Z</time>
      </trkpt>
      <trkpt lat="46.71578" lon="4.92118">
        <ele>172.69</ele>
        <time>2012-09-08T11:53:53Z</time>
      </trkpt>
      <trkpt lat="46.71598" lon="4.92043">
        <ele>173.17</ele>
        <time>2012-09-08T11:54:11Z</time>
      </trkpt>
      <trkpt lat="46.71615" lon="4.91972">
        <ele>173.17</ele>
        <time>2012-09-08T11:54:27Z</time>
      </trkpt>
      <trkpt lat="46.71628" lon="4.91913">
        <ele>172.69</ele>
        <time>2012-09-08T11:54:42Z</time>
      </trkpt>
      <trkpt lat="46.71644" lon="4.91834">
        <ele>173.17</ele>
        <time>2012-09-08T11:55:01Z</time>
      </trkpt>
      <trkpt lat="46.71655" lon="4.91778">
        <ele>173.17</ele>
        <time>2012-09-08T11:55:15Z</time>
      </trkpt>
      <trkpt lat="46.71671" lon="4.91713">
        <ele>173.17</ele>
        <time>2012-09-08T11:55:31Z</time>
      </trkpt>
      <trkpt lat="46.71688" lon="4.91643">
        <ele>173.66</ele>
        <time>2012-09-08T11:55:48Z</time>
      </trkpt>
      <trkpt lat="46.71703" lon="4.91584">
        <ele>173.66</ele>
        <time>2012-09-08T11:56:02Z</time>
      </trkpt>
      <trkpt lat="46.7172" lon="4.91522">
        <ele>173.66</ele>
        <time>2012-09-08T11:56:17Z</time>
      </trkpt>
      <trkpt lat="46.71744" lon="4.91446">
        <ele>173.66</ele>
        <time>2012-09-08T11:56:35Z</time>
      </trkpt>
      <trkpt lat="46.71768" lon="4.91372">
        <ele>173.66</ele>
        <time>2012-09-08T11:56:53Z</time>
      </trkpt>
      <trkpt lat="46.71789" lon="4.91309">
        <ele>173.66</ele>
        <time>2012-09-08T11:57:10Z</time>
      </trkpt>
      <trkpt lat="46.71814" lon="4.91244">
        <ele>173.66</ele>
        <time>2012-09-08T11:57:27Z</time>
      </trkpt>
      <trkpt lat="46.71839" lon="4.91188">
        <ele>173.66</ele>
        <time>2012-09-08T11:57:43Z</time>
      </trkpt>
      <trkpt lat="46.71863" lon="4.91127">
        <ele>173.66</ele>
        <time>2012-09-08T11:57:59Z</time>
      </trkpt>
      <trkpt lat="46.71892" lon="4.91065">
        <ele>173.66</ele>
        <time>2012-09-08T11:58:15Z</time>
      </trkpt>
      <trkpt lat="46.71915" lon="4.91022">
        <ele>173.66</ele>
        <time>2012-09-08T11:58:28Z</time>
      </trkpt>
      <trkpt lat="46.71943" lon="4.90982">
        <ele>174.14</ele>
        <time>2012-09-08T11:58:42Z</time>
      </trkpt>
      <trkpt lat="46.71969" lon="4.90946">
        <ele>174.14</ele>
        <time>2012-09-08T11:58:54Z</time>
      </trkpt>
      <trkpt lat="46.72025" lon="4.90893">
        <ele>173.66</ele>
        <time>2012-09-08T11:59:14Z</time>
      </trkpt>
      <trkpt lat="46.72075" lon="4.90856">
        <ele>173.66</ele>
        <time>2012-09-08T11:59:31Z</time>
      </trkpt>
      <trkpt lat="46.72132" lon="4.90823">
        <ele>173.66</ele>
        <time>2012-09-08T11:59:51Z</time>
      </trkpt>
      <trkpt lat="46.7217" lon="4.908">
        <ele>173.66</ele>
        <time>2012-09-08T12:00:05Z</time>
      </trkpt>
      <trkpt lat="46.72218" lon="4.90772">
        <ele>174.14</ele>
        <time>2012-09-08T12:00:24Z</time>
      </trkpt>
      <trkpt lat="46.72258" lon="4.90746">
        <ele>174.14</ele>
        <time>2012-09-08T12:00:41Z</time>
      </trkpt>
      <trkpt lat="46.72296" lon="4.90726">
        <ele>174.14</ele>
        <time>2012-09-08T12:00:56Z</time>
      </trkpt>
      <trkpt lat="46.72343" lon="4.907">
        <ele>174.14</ele>
        <time>2012-09-08T12:01:13Z</time>
      </trkpt>
      <trkpt lat="46.72388" lon="4.90679">
        <ele>174.14</ele>
        <time>2012-09-08T12:01:28Z</time>
      </trkpt>
      <trkpt lat="46.72437" lon="4.90638">
        <ele>174.14</ele>
        <time>2012-09-08T12:01:46Z</time>
      </trkpt>
      <trkpt lat="46.72474" lon="4.90583">
        <ele>174.62</ele>
        <time>2012-09-08T12:02:03Z</time>
      </trkpt>
      <trkpt lat="46.725" lon="4.90528">
        <ele>174.62</ele>
        <time>2012-09-08T12:02:18Z</time>
      </trkpt>
      <trkpt lat="46.72531" lon="4.90479">
        <ele>174.62</ele>
        <time>2012-09-08T12:02:32Z</time>
      </trkpt>
      <trkpt lat="46.72553" lon="4.90435">
        <ele>174.62</ele>
        <time>2012-09-08T12:02:44Z</time>
      </trkpt>
      <trkpt lat="46.72577" lon="4.90384">
        <ele>174.62</ele>
        <time>2012-09-08T12:02:58Z</time>
      </trkpt>
      <trkpt lat="46.72602" lon="4.90342">
        <ele>174.62</ele>
        <time>2012-09-08T12:03:10Z</time>
      </trkpt>
      <trkpt lat="46.72626" lon="4.90294">
        <ele>174.62</ele>
        <time>2012-09-08T12:03:23Z</time>
      </trkpt>
      <trkpt lat="46.72645" lon="4.9026">
        <ele>174.14</ele>
        <time>2012-09-08T12:03:35Z</time>
      </trkpt>
      <trkpt lat="46.72669" lon="4.90244">
        <ele>173.66</ele>
        <time>2012-09-08T12:03:45Z</time>
      </trkpt>
      <trkpt lat="46.72709" lon="4.90204">
        <ele>173.66</ele>
        <time>2012-09-08T12:03:59Z</time>
      </trkpt>
      <trkpt lat="46.72747" lon="4.90178">
        <ele>174.14</ele>
        <time>2012-09-08T12:04:12Z</time>
      </trkpt>
      <trkpt lat="46.72777" lon="4.9015">
        <ele>173.66</ele>
        <time>2012-09-08T12:04:23Z</time>
      </trkpt>
      <trkpt lat="46.72809" lon="4.90129">
        <ele>173.66</ele>
        <time>2012-09-08T12:04:33Z</time>
      </trkpt>
      <trkpt lat="46.72846" lon="4.90106">
        <ele>174.14</ele>
        <time>2012-09-08T12:04:45Z</time>
      </trkpt>
      <trkpt lat="46.72887" lon="4.9008">
        <ele>174.14</ele>
        <time>2012-09-08T12:04:58Z</time>
      </trkpt>
      <trkpt lat="46.72925" lon="4.90055">
        <ele>174.14</ele>
        <time>2012-09-08T12:05:10Z</time>
      </trkpt>
      <trkpt lat="46.72958" lon="4.90024">
        <ele>174.14</ele>
        <time>2012-09-08T12:05:22Z</time>
      </trkpt>
      <trkpt lat="46.72966" lon="4.90011">
        <ele>174.14</ele>
        <time>2012-09-08T12:05:32Z</time>
      </trkpt>
      <trkpt lat="46.72968" lon="4.90011">
        <ele>174.14</ele>
        <time>2012-09-08T12:05:58Z</time>
      </trkpt>
      <trkpt lat="46.72969" lon="4.90011">
        <ele>174.14</ele>
        <time>2012-09-08T12:06:29Z</time>
      </trkpt>
      <trkpt lat="46.7297" lon="4.90011">
        <ele>174.14</ele>
        <time>2012-09-08T12:06:34Z</time>
      </trkpt>
      <trkpt lat="46.72971" lon="4.90008">
        <ele>174.14</ele>
        <time>2012-09-08T12:06:36Z</time>
      </trkpt>
      <trkpt lat="46.72992" lon="4.89971">
        <ele>173.66</ele>
        <time>2012-09-08T12:06:50Z</time>
      </trkpt>
      <trkpt lat="46.73005" lon="4.89928">
        <ele>174.14</ele>
        <time>2012-09-08T12:07:00Z</time>
      </trkpt>
      <trkpt lat="46.73013" lon="4.89912">
        <ele>174.62</ele>
        <time>2012-09-08T12:07:06Z</time>
      </trkpt>
      <trkpt lat="46.73021" lon="4.89889">
        <ele>174.14</ele>
        <time>2012-09-08T12:07:12Z</time>
      </trkpt>
      <trkpt lat="46.73035" lon="4.89839">
        <ele>174.62</ele>
        <time>2012-09-08T12:07:26Z</time>
      </trkpt>
      <trkpt lat="46.73051" lon="4.89767">
        <ele>174.62</ele>
        <time>2012-09-08T12:07:43Z</time>
      </trkpt>
      <trkpt lat="46.73063" lon="4.89706">
        <ele>174.62</ele>
        <time>2012-09-08T12:07:57Z</time>
      </trkpt>
      <trkpt lat="46.73071" lon="4.89627">
        <ele>174.62</ele>
        <time>2012-09-08T12:08:13Z</time>
      </trkpt>
      <trkpt lat="46.73076" lon="4.89543">
        <ele>175.1</ele>
        <time>2012-09-08T12:08:29Z</time>
      </trkpt>
      <trkpt lat="46.73074" lon="4.89451">
        <ele>175.1</ele>
        <time>2012-09-08T12:08:47Z</time>
      </trkpt>
      <trkpt lat="46.73075" lon="4.89368">
        <ele>175.1</ele>
        <time>2012-09-08T12:09:03Z</time>
      </trkpt>
      <trkpt lat="46.73066" lon="4.89304">
        <ele>174.62</ele>
        <time>2012-09-08T12:09:17Z</time>
      </trkpt>
      <trkpt lat="46.73047" lon="4.8923">
        <ele>175.1</ele>
        <time>2012-09-08T12:09:34Z</time>
      </trkpt>
      <trkpt lat="46.73041" lon="4.89182">
        <ele>174.62</ele>
        <time>2012-09-08T12:09:45Z</time>
      </trkpt>
      <trkpt lat="46.73028" lon="4.89112">
        <ele>175.1</ele>
        <time>2012-09-08T12:10:00Z</time>
      </trkpt>
      <trkpt lat="46.73015" lon="4.89041">
        <ele>175.1</ele>
        <time>2012-09-08T12:10:16Z</time>
      </trkpt>
      <trkpt lat="46.73006" lon="4.89">
        <ele>175.58</ele>
        <time>2012-09-08T12:10:27Z</time>
      </trkpt>
      <trkpt lat="46.73003" lon="4.88954">
        <ele>175.58</ele>
        <time>2012-09-08T12:10:37Z</time>
      </trkpt>
      <trkpt lat="46.73007" lon="4.88883">
        <ele>175.58</ele>
        <time>2012-09-08T12:10:52Z</time>
      </trkpt>
      <trkpt lat="46.73016" lon="4.88805">
        <ele>175.58</ele>
        <time>2012-09-08T12:11:08Z</time>
      </trkpt>
      <trkpt lat="46.73026" lon="4.88733">
        <ele>175.1</ele>
        <time>2012-09-08T12:11:23Z</time>
      </trkpt>
      <trkpt lat="46.73041" lon="4.88672">
        <ele>175.58</ele>
        <time>2012-09-08T12:11:37Z</time>
      </trkpt>
      <trkpt lat="46.73055" lon="4.88606">
        <ele>175.58</ele>
        <time>2012-09-08T12:11:50Z</time>
      </trkpt>
      <trkpt lat="46.73079" lon="4.88551">
        <ele>175.58</ele>
        <time>2012-09-08T12:12:04Z</time>
      </trkpt>
      <trkpt lat="46.731" lon="4.88507">
        <ele>175.58</ele>
        <time>2012-09-08T12:12:15Z</time>
      </trkpt>
      <trkpt lat="46.73118" lon="4.88454">
        <ele>175.58</ele>
        <time>2012-09-08T12:12:27Z</time>
      </trkpt>
      <trkpt lat="46.7312" lon="4.88444">
        <ele>176.06</ele>
        <time>2012-09-08T12:12:31Z</time>
      </trkpt>
      <trkpt lat="46.7312" lon="4.88438">
        <ele>176.06</ele>
        <time>2012-09-08T12:12:45Z</time>
      </trkpt>
      <trkpt lat="46.73127" lon="4.88413">
        <ele>176.06</ele>
        <time>2012-09-08T12:13:00Z</time>
      </trkpt>
      <trkpt lat="46.73155" lon="4.88341">
        <ele>176.54</ele>
        <time>2012-09-08T12:13:14Z</time>
      </trkpt>
      <trkpt lat="46.73158" lon="4.88337">
        <ele>176.54</ele>
        <time>2012-09-08T12:13:15Z</time>
      </trkpt>
      <trkpt lat="46.73166" lon="4.88329">
        <ele>176.54</ele>
        <time>2012-09-08T12:13:17Z</time>
      </trkpt>
      <trkpt lat="46.73169" lon="4.88326">
        <ele>176.54</ele>
        <time>2012-09-08T12:13:18Z</time>
      </trkpt>
      <trkpt lat="46.73187" lon="4.88313">
        <ele>176.06</ele>
        <time>2012-09-08T12:13:23Z</time>
      </trkpt>
      <trkpt lat="46.7319" lon="4.8831">
        <ele>176.06</ele>
        <time>2012-09-08T12:13:24Z</time>
      </trkpt>
      <trkpt lat="46.73245" lon="4.88241">
        <ele>176.06</ele>
        <time>2012-09-08T12:13:42Z</time>
      </trkpt>
      <trkpt lat="46.73281" lon="4.88199">
        <ele>176.54</ele>
        <time>2012-09-08T12:13:56Z</time>
      </trkpt>
      <trkpt lat="46.73321" lon="4.88155">
        <ele>176.06</ele>
        <time>2012-09-08T12:14:10Z</time>
      </trkpt>
      <trkpt lat="46.73357" lon="4.88114">
        <ele>176.54</ele>
        <time>2012-09-08T12:14:24Z</time>
      </trkpt>
      <trkpt lat="46.73393" lon="4.88078">
        <ele>176.54</ele>
        <time>2012-09-08T12:14:36Z</time>
      </trkpt>
      <trkpt lat="46.73427" lon="4.88037">
        <ele>176.54</ele>
        <time>2012-09-08T12:14:48Z</time>
      </trkpt>
      <trkpt lat="46.73465" lon="4.88012">
        <ele>176.06</ele>
        <time>2012-09-08T12:15:01Z</time>
      </trkpt>
      <trkpt lat="46.73496" lon="4.87984">
        <ele>176.06</ele>
        <time>2012-09-08T12:15:13Z</time>
      </trkpt>
      <trkpt lat="46.73529" lon="4.87964">
        <ele>176.54</ele>
        <time>2012-09-08T12:15:25Z</time>
      </trkpt>
      <trkpt lat="46.73582" lon="4.87945">
        <ele>176.06</ele>
        <time>2012-09-08T12:15:41Z</time>
      </trkpt>
      <trkpt lat="46.73632" lon="4.87937">
        <ele>176.54</ele>
        <time>2012-09-08T12:15:56Z</time>
      </trkpt>
      <trkpt lat="46.737" lon="4.87936">
        <ele>176.06</ele>
        <time>2012-09-08T12:16:15Z</time>
      </trkpt>
      <trkpt lat="46.73759" lon="4.87949">
        <ele>176.54</ele>
        <time>2012-09-08T12:16:32Z</time>
      </trkpt>
      <trkpt lat="46.73799" lon="4.87973">
        <ele>176.06</ele>
        <time>2012-09-08T12:16:44Z</time>
      </trkpt>
      <trkpt lat="46.73846" lon="4.87997">
        <ele>175.58</ele>
        <time>2012-09-08T12:16:57Z</time>
      </trkpt>
      <trkpt lat="46.73911" lon="4.88023">
        <ele>175.58</ele>
        <time>2012-09-08T12:17:15Z</time>
      </trkpt>
      <trkpt lat="46.73972" lon="4.88051">
        <ele>175.58</ele>
        <time>2012-09-08T12:17:32Z</time>
      </trkpt>
      <trkpt lat="46.7403" lon="4.88084">
        <ele>175.58</ele>
        <time>2012-09-08T12:17:49Z</time>
      </trkpt>
      <trkpt lat="46.74094" lon="4.88115">
        <ele>175.58</ele>
        <time>2012-09-08T12:18:07Z</time>
      </trkpt>
      <trkpt lat="46.74128" lon="4.88114">
        <ele>176.06</ele>
        <time>2012-09-08T12:18:20Z</time>
      </trkpt>
      <trkpt lat="46.7413" lon="4.88114">
        <ele>176.06</ele>
        <time>2012-09-08T12:18:21Z</time>
      </trkpt>
      <trkpt lat="46.74156" lon="4.88135">
        <ele>176.06</ele>
        <time>2012-09-08T12:18:33Z</time>
      </trkpt>
      <trkpt lat="46.74179" lon="4.88162">
        <ele>174.62</ele>
        <time>2012-09-08T12:18:41Z</time>
      </trkpt>
      <trkpt lat="46.74183" lon="4.88165">
        <ele>174.62</ele>
        <time>2012-09-08T12:18:42Z</time>
      </trkpt>
      <trkpt lat="46.74224" lon="4.88182">
        <ele>174.62</ele>
        <time>2012-09-08T12:18:55Z</time>
      </trkpt>
      <trkpt lat="46.74276" lon="4.88199">
        <ele>175.1</ele>
        <time>2012-09-08T12:19:11Z</time>
      </trkpt>
      <trkpt lat="46.74339" lon="4.88215">
        <ele>175.1</ele>
        <time>2012-09-08T12:19:29Z</time>
      </trkpt>
      <trkpt lat="46.74396" lon="4.88231">
        <ele>175.1</ele>
        <time>2012-09-08T12:19:46Z</time>
      </trkpt>
      <trkpt lat="46.74455" lon="4.88239">
        <ele>175.1</ele>
        <time>2012-09-08T12:20:05Z</time>
      </trkpt>
      <trkpt lat="46.74514" lon="4.88238">
        <ele>176.54</ele>
        <time>2012-09-08T12:20:26Z</time>
      </trkpt>
      <trkpt lat="46.74566" lon="4.88239">
        <ele>176.54</ele>
        <time>2012-09-08T12:20:44Z</time>
      </trkpt>
      <trkpt lat="46.74632" lon="4.88233">
        <ele>176.06</ele>
        <time>2012-09-08T12:21:03Z</time>
      </trkpt>
      <trkpt lat="46.74667" lon="4.88224">
        <ele>176.54</ele>
        <time>2012-09-08T12:21:17Z</time>
      </trkpt>
      <trkpt lat="46.74707" lon="4.8821">
        <ele>176.54</ele>
        <time>2012-09-08T12:21:31Z</time>
      </trkpt>
      <trkpt lat="46.74755" lon="4.8819">
        <ele>176.54</ele>
        <time>2012-09-08T12:21:47Z</time>
      </trkpt>
      <trkpt lat="46.74803" lon="4.88161">
        <ele>176.54</ele>
        <time>2012-09-08T12:22:03Z</time>
      </trkpt>
      <trkpt lat="46.74853" lon="4.88128">
        <ele>176.54</ele>
        <time>2012-09-08T12:22:20Z</time>
      </trkpt>
      <trkpt lat="46.74896" lon="4.88105">
        <ele>176.54</ele>
        <time>2012-09-08T12:22:35Z</time>
      </trkpt>
      <trkpt lat="46.74949" lon="4.88076">
        <ele>176.54</ele>
        <time>2012-09-08T12:22:52Z</time>
      </trkpt>
      <trkpt lat="46.75008" lon="4.88035">
        <ele>176.54</ele>
        <time>2012-09-08T12:23:12Z</time>
      </trkpt>
      <trkpt lat="46.75051" lon="4.88009">
        <ele>176.06</ele>
        <time>2012-09-08T12:23:27Z</time>
      </trkpt>
      <trkpt lat="46.75104" lon="4.87975">
        <ele>176.54</ele>
        <time>2012-09-08T12:23:45Z</time>
      </trkpt>
      <trkpt lat="46.75161" lon="4.87939">
        <ele>176.54</ele>
        <time>2012-09-08T12:24:03Z</time>
      </trkpt>
      <trkpt lat="46.75205" lon="4.879">
        <ele>176.54</ele>
        <time>2012-09-08T12:24:18Z</time>
      </trkpt>
      <trkpt lat="46.75244" lon="4.8786">
        <ele>176.54</ele>
        <time>2012-09-08T12:24:33Z</time>
      </trkpt>
      <trkpt lat="46.75291" lon="4.87806">
        <ele>176.54</ele>
        <time>2012-09-08T12:24:51Z</time>
      </trkpt>
      <trkpt lat="46.75331" lon="4.87746">
        <ele>176.54</ele>
        <time>2012-09-08T12:25:08Z</time>
      </trkpt>
      <trkpt lat="46.75365" lon="4.87676">
        <ele>176.06</ele>
        <time>2012-09-08T12:25:25Z</time>
      </trkpt>
      <trkpt lat="46.75378" lon="4.87623">
        <ele>176.06</ele>
        <time>2012-09-08T12:25:38Z</time>
      </trkpt>
      <trkpt lat="46.75393" lon="4.87554">
        <ele>176.06</ele>
        <time>2012-09-08T12:25:54Z</time>
      </trkpt>
      <trkpt lat="46.75403" lon="4.87494">
        <ele>176.54</ele>
        <time>2012-09-08T12:26:07Z</time>
      </trkpt>
      <trkpt lat="46.75416" lon="4.8741">
        <ele>175.58</ele>
        <time>2012-09-08T12:26:23Z</time>
      </trkpt>
      <trkpt lat="46.75422" lon="4.87345">
        <ele>175.58</ele>
        <time>2012-09-08T12:26:36Z</time>
      </trkpt>
      <trkpt lat="46.7543" lon="4.87279">
        <ele>176.06</ele>
        <time>2012-09-08T12:26:51Z</time>
      </trkpt>
      <trkpt lat="46.75433" lon="4.87248">
        <ele>175.58</ele>
        <time>2012-09-08T12:27:02Z</time>
      </trkpt>
      <trkpt lat="46.75437" lon="4.87224">
        <ele>176.06</ele>
        <time>2012-09-08T12:27:11Z</time>
      </trkpt>
      <trkpt lat="46.75441" lon="4.87164">
        <ele>176.06</ele>
        <time>2012-09-08T12:27:26Z</time>
      </trkpt>
      <trkpt lat="46.75461" lon="4.8709">
        <ele>175.58</ele>
        <time>2012-09-08T12:27:43Z</time>
      </trkpt>
      <trkpt lat="46.75464" lon="4.87077">
        <ele>175.58</ele>
        <time>2012-09-08T12:27:54Z</time>
      </trkpt>
      <trkpt lat="46.75464" lon="4.87076">
        <ele>175.58</ele>
        <time>2012-09-08T12:28:14Z</time>
      </trkpt>
      <trkpt lat="46.75464" lon="4.87077">
        <ele>175.58</ele>
        <time>2012-09-08T12:28:53Z</time>
      </trkpt>
      <trkpt lat="46.75464" lon="4.87078">
        <ele>176.06</ele>
        <time>2012-09-08T12:29:26Z</time>
      </trkpt>
      <trkpt lat="46.75464" lon="4.87078">
        <ele>175.58</ele>
        <time>2012-09-08T12:29:52Z</time>
      </trkpt>
      <trkpt lat="46.75469" lon="4.87043">
        <ele>176.06</ele>
        <time>2012-09-08T12:30:04Z</time>
      </trkpt>
      <trkpt lat="46.75472" lon="4.87027">
        <ele>176.06</ele>
        <time>2012-09-08T12:30:16Z</time>
      </trkpt>
      <trkpt lat="46.75472" lon="4.87027">
        <ele>176.06</ele>
        <time>2012-09-08T12:30:46Z</time>
      </trkpt>
      <trkpt lat="46.75474" lon="4.8702">
        <ele>175.58</ele>
        <time>2012-09-08T12:31:16Z</time>
      </trkpt>
      <trkpt lat="46.75485" lon="4.86973">
        <ele>176.06</ele>
        <time>2012-09-08T12:31:30Z</time>
      </trkpt>
      <trkpt lat="46.75505" lon="4.86905">
        <ele>175.58</ele>
        <time>2012-09-08T12:31:46Z</time>
      </trkpt>
      <trkpt lat="46.7553" lon="4.86832">
        <ele>176.06</ele>
        <time>2012-09-08T12:32:03Z</time>
      </trkpt>
      <trkpt lat="46.7556" lon="4.86756">
        <ele>176.06</ele>
        <time>2012-09-08T12:32:20Z</time>
      </trkpt>
      <trkpt lat="46.75583" lon="4.86693">
        <ele>176.06</ele>
        <time>2012-09-08T12:32:35Z</time>
      </trkpt>
      <trkpt lat="46.75615" lon="4.86627">
        <ele>176.06</ele>
        <time>2012-09-08T12:32:51Z</time>
      </trkpt>
      <trkpt lat="46.75637" lon="4.86581">
        <ele>176.06</ele>
        <time>2012-09-08T12:33:04Z</time>
      </trkpt>
      <trkpt lat="46.75657" lon="4.86546">
        <ele>176.06</ele>
        <time>2012-09-08T12:33:16Z</time>
      </trkpt>
      <trkpt lat="46.75682" lon="4.86501">
        <ele>176.54</ele>
        <time>2012-09-08T12:33:29Z</time>
      </trkpt>
      <trkpt lat="46.75714" lon="4.86445">
        <ele>177.02</ele>
        <time>2012-09-08T12:33:43Z</time>
      </trkpt>
      <trkpt lat="46.75752" lon="4.86378">
        <ele>176.54</ele>
        <time>2012-09-08T12:33:59Z</time>
      </trkpt>
      <trkpt lat="46.75793" lon="4.86302">
        <ele>177.02</ele>
        <time>2012-09-08T12:34:17Z</time>
      </trkpt>
      <trkpt lat="46.75826" lon="4.86231">
        <ele>177.02</ele>
        <time>2012-09-08T12:34:32Z</time>
      </trkpt>
      <trkpt lat="46.7585" lon="4.86152">
        <ele>176.54</ele>
        <time>2012-09-08T12:34:47Z</time>
      </trkpt>
      <trkpt lat="46.75875" lon="4.86049">
        <ele>176.06</ele>
        <time>2012-09-08T12:35:06Z</time>
      </trkpt>
      <trkpt lat="46.759" lon="4.85964">
        <ele>176.06</ele>
        <time>2012-09-08T12:35:22Z</time>
      </trkpt>
      <trkpt lat="46.75924" lon="4.85882">
        <ele>176.54</ele>
        <time>2012-09-08T12:35:39Z</time>
      </trkpt>
      <trkpt lat="46.75936" lon="4.85816">
        <ele>176.06</ele>
        <time>2012-09-08T12:35:52Z</time>
      </trkpt>
      <trkpt lat="46.7595" lon="4.85755">
        <ele>176.06</ele>
        <time>2012-09-08T12:36:05Z</time>
      </trkpt>
      <trkpt lat="46.75965" lon="4.85691">
        <ele>176.06</ele>
        <time>2012-09-08T12:36:18Z</time>
      </trkpt>
      <trkpt lat="46.75981" lon="4.85615">
        <ele>176.06</ele>
        <time>2012-09-08T12:36:32Z</time>
      </trkpt>
      <trkpt lat="46.76004" lon="4.85536">
        <ele>176.54</ele>
        <time>2012-09-08T12:36:49Z</time>
      </trkpt>
      <trkpt lat="46.76032" lon="4.85461">
        <ele>176.54</ele>
        <time>2012-09-08T12:37:04Z</time>
      </trkpt>
      <trkpt lat="46.76052" lon="4.85408">
        <ele>177.5</ele>
        <time>2012-09-08T12:37:19Z</time>
      </trkpt>
      <trkpt lat="46.76055" lon="4.85401">
        <ele>177.5</ele>
        <time>2012-09-08T12:37:22Z</time>
      </trkpt>
      <trkpt lat="46.76056" lon="4.85397">
        <ele>177.5</ele>
        <time>2012-09-08T12:37:35Z</time>
      </trkpt>
      <trkpt lat="46.76056" lon="4.85398">
        <ele>177.5</ele>
        <time>2012-09-08T12:38:05Z</time>
      </trkpt>
      <trkpt lat="46.76057" lon="4.85397">
        <ele>177.5</ele>
        <time>2012-09-08T12:38:33Z</time>
      </trkpt>
      <trkpt lat="46.76056" lon="4.85396">
        <ele>177.5</ele>
        <time>2012-09-08T12:39:06Z</time>
      </trkpt>
      <trkpt lat="46.76057" lon="4.85401">
        <ele>177.5</ele>
        <time>2012-09-08T12:39:19Z</time>
      </trkpt>
      <trkpt lat="46.76057" lon="4.85402">
        <ele>177.5</ele>
        <time>2012-09-08T12:39:53Z</time>
      </trkpt>
      <trkpt lat="46.76058" lon="4.85402">
        <ele>177.5</ele>
        <time>2012-09-08T12:40:30Z</time>
      </trkpt>
      <trkpt lat="46.76058" lon="4.85401">
        <ele>177.5</ele>
        <time>2012-09-08T12:41:02Z</time>
      </trkpt>
      <trkpt lat="46.76058" lon="4.85403">
        <ele>177.5</ele>
        <time>2012-09-08T12:41:40Z</time>
      </trkpt>
      <trkpt lat="46.76057" lon="4.85402">
        <ele>177.5</ele>
        <time>2012-09-08T12:42:12Z</time>
      </trkpt>
      <trkpt lat="46.7606" lon="4.8539">
        <ele>177.5</ele>
        <time>2012-09-08T12:42:24Z</time>
      </trkpt>
      <trkpt lat="46.76077" lon="4.85344">
        <ele>177.02</ele>
        <time>2012-09-08T12:42:38Z</time>
      </trkpt>
      <trkpt lat="46.76095" lon="4.85288">
        <ele>176.54</ele>
        <time>2012-09-08T12:42:51Z</time>
      </trkpt>
      <trkpt lat="46.76092" lon="4.85285">
        <ele>176.54</ele>
        <time>2012-09-08T12:43:04Z</time>
      </trkpt>
      <trkpt lat="46.76093" lon="4.85284">
        <ele>176.54</ele>
        <time>2012-09-08T12:43:36Z</time>
      </trkpt>
      <trkpt lat="46.76094" lon="4.85285">
        <ele>176.54</ele>
        <time>2012-09-08T12:43:40Z</time>
      </trkpt>
      <trkpt lat="46.7611" lon="4.85251">
        <ele>176.54</ele>
        <time>2012-09-08T12:43:50Z</time>
      </trkpt>
      <trkpt lat="46.76112" lon="4.85245">
        <ele>176.54</ele>
        <time>2012-09-08T12:43:51Z</time>
      </trkpt>
      <trkpt lat="46.7613" lon="4.85194">
        <ele>176.54</ele>
        <time>2012-09-08T12:43:59Z</time>
      </trkpt>
      <trkpt lat="46.76142" lon="4.85168">
        <ele>176.54</ele>
        <time>2012-09-08T12:44:03Z</time>
      </trkpt>
      <trkpt lat="46.76144" lon="4.85161">
        <ele>176.54</ele>
        <time>2012-09-08T12:44:04Z</time>
      </trkpt>
      <trkpt lat="46.7615" lon="4.85148">
        <ele>176.54</ele>
        <time>2012-09-08T12:44:06Z</time>
      </trkpt>
      <trkpt lat="46.76163" lon="4.85107">
        <ele>176.54</ele>
        <time>2012-09-08T12:44:12Z</time>
      </trkpt>
      <trkpt lat="46.76188" lon="4.85041">
        <ele>176.54</ele>
        <time>2012-09-08T12:44:22Z</time>
      </trkpt>
      <trkpt lat="46.76193" lon="4.85028">
        <ele>176.54</ele>
        <time>2012-09-08T12:44:24Z</time>
      </trkpt>
      <trkpt lat="46.76209" lon="4.84982">
        <ele>176.54</ele>
        <time>2012-09-08T12:44:31Z</time>
      </trkpt>
      <trkpt lat="46.76214" lon="4.84969">
        <ele>176.54</ele>
        <time>2012-09-08T12:44:33Z</time>
      </trkpt>
      <trkpt lat="46.76253" lon="4.84881">
        <ele>176.54</ele>
        <time>2012-09-08T12:44:47Z</time>
      </trkpt>
      <trkpt lat="46.76257" lon="4.84875">
        <ele>176.54</ele>
        <time>2012-09-08T12:44:48Z</time>
      </trkpt>
      <trkpt lat="46.76294" lon="4.84822">
        <ele>176.54</ele>
        <time>2012-09-08T12:44:58Z</time>
      </trkpt>
      <trkpt lat="46.76297" lon="4.84816">
        <ele>176.54</ele>
        <time>2012-09-08T12:44:59Z</time>
      </trkpt>
      <trkpt lat="46.763" lon="4.84811">
        <ele>176.54</ele>
        <time>2012-09-08T12:45:00Z</time>
      </trkpt>
      <trkpt lat="46.76304" lon="4.84805">
        <ele>176.54</ele>
        <time>2012-09-08T12:45:01Z</time>
      </trkpt>
      <trkpt lat="46.76307" lon="4.848">
        <ele>176.54</ele>
        <time>2012-09-08T12:45:02Z</time>
      </trkpt>
      <trkpt lat="46.76311" lon="4.84795">
        <ele>176.54</ele>
        <time>2012-09-08T12:45:03Z</time>
      </trkpt>
      <trkpt lat="46.76354" lon="4.84726">
        <ele>176.54</ele>
        <time>2012-09-08T12:45:16Z</time>
      </trkpt>
      <trkpt lat="46.76363" lon="4.84714">
        <ele>176.54</ele>
        <time>2012-09-08T12:45:19Z</time>
      </trkpt>
      <trkpt lat="46.76366" lon="4.8471">
        <ele>176.54</ele>
        <time>2012-09-08T12:45:20Z</time>
      </trkpt>
      <trkpt lat="46.7637" lon="4.84707">
        <ele>176.06</ele>
        <time>2012-09-08T12:45:21Z</time>
      </trkpt>
      <trkpt lat="46.76407" lon="4.84658">
        <ele>176.54</ele>
        <time>2012-09-08T12:45:34Z</time>
      </trkpt>
      <trkpt lat="46.76448" lon="4.84613">
        <ele>176.54</ele>
        <time>2012-09-08T12:45:47Z</time>
      </trkpt>
      <trkpt lat="46.76504" lon="4.84557">
        <ele>176.54</ele>
        <time>2012-09-08T12:46:04Z</time>
      </trkpt>
      <trkpt lat="46.76514" lon="4.84546">
        <ele>176.54</ele>
        <time>2012-09-08T12:46:07Z</time>
      </trkpt>
      <trkpt lat="46.76572" lon="4.84493">
        <ele>176.54</ele>
        <time>2012-09-08T12:46:23Z</time>
      </trkpt>
      <trkpt lat="46.76625" lon="4.84447">
        <ele>176.54</ele>
        <time>2012-09-08T12:46:37Z</time>
      </trkpt>
      <trkpt lat="46.76706" lon="4.84402">
        <ele>176.54</ele>
        <time>2012-09-08T12:46:56Z</time>
      </trkpt>
      <trkpt lat="46.76784" lon="4.84375">
        <ele>176.54</ele>
        <time>2012-09-08T12:47:15Z</time>
      </trkpt>
      <trkpt lat="46.76836" lon="4.84361">
        <ele>177.5</ele>
        <time>2012-09-08T12:47:30Z</time>
      </trkpt>
      <trkpt lat="46.76887" lon="4.84357">
        <ele>177.98</ele>
        <time>2012-09-08T12:47:45Z</time>
      </trkpt>
      <trkpt lat="46.76954" lon="4.84356">
        <ele>177.5</ele>
        <time>2012-09-08T12:48:02Z</time>
      </trkpt>
      <trkpt lat="46.77031" lon="4.84369">
        <ele>177.98</ele>
        <time>2012-09-08T12:48:21Z</time>
      </trkpt>
      <trkpt lat="46.77096" lon="4.84384">
        <ele>177.98</ele>
        <time>2012-09-08T12:48:37Z</time>
      </trkpt>
      <trkpt lat="46.77172" lon="4.84408">
        <ele>177.98</ele>
        <time>2012-09-08T12:48:55Z</time>
      </trkpt>
      <trkpt lat="46.77236" lon="4.84431">
        <ele>177.98</ele>
        <time>2012-09-08T12:49:10Z</time>
      </trkpt>
      <trkpt lat="46.77304" lon="4.84461">
        <ele>177.98</ele>
        <time>2012-09-08T12:49:26Z</time>
      </trkpt>
      <trkpt lat="46.7737" lon="4.84494">
        <ele>177.98</ele>
        <time>2012-09-08T12:49:42Z</time>
      </trkpt>
      <trkpt lat="46.77373" lon="4.84498">
        <ele>177.5</ele>
        <time>2012-09-08T12:49:43Z</time>
      </trkpt>
      <trkpt lat="46.77376" lon="4.84502">
        <ele>177.5</ele>
        <time>2012-09-08T12:49:44Z</time>
      </trkpt>
      <trkpt lat="46.77378" lon="4.84507">
        <ele>177.5</ele>
        <time>2012-09-08T12:49:45Z</time>
      </trkpt>
      <trkpt lat="46.77383" lon="4.84519">
        <ele>177.02</ele>
        <time>2012-09-08T12:49:47Z</time>
      </trkpt>
      <trkpt lat="46.77386" lon="4.84523">
        <ele>177.02</ele>
        <time>2012-09-08T12:49:48Z</time>
      </trkpt>
      <trkpt lat="46.7739" lon="4.84527">
        <ele>177.02</ele>
        <time>2012-09-08T12:49:49Z</time>
      </trkpt>
      <trkpt lat="46.77394" lon="4.84529">
        <ele>177.02</ele>
        <time>2012-09-08T12:49:50Z</time>
      </trkpt>
      <trkpt lat="46.77398" lon="4.8453">
        <ele>177.02</ele>
        <time>2012-09-08T12:49:51Z</time>
      </trkpt>
      <trkpt lat="46.77402" lon="4.84531">
        <ele>177.02</ele>
        <time>2012-09-08T12:49:52Z</time>
      </trkpt>
      <trkpt lat="46.77407" lon="4.84531">
        <ele>177.02</ele>
        <time>2012-09-08T12:49:53Z</time>
      </trkpt>
      <trkpt lat="46.77411" lon="4.84532">
        <ele>177.02</ele>
        <time>2012-09-08T12:49:54Z</time>
      </trkpt>
      <trkpt lat="46.77415" lon="4.84533">
        <ele>177.02</ele>
        <time>2012-09-08T12:49:55Z</time>
      </trkpt>
      <trkpt lat="46.77461" lon="4.84567">
        <ele>179.42</ele>
        <time>2012-09-08T12:50:10Z</time>
      </trkpt>
      <trkpt lat="46.77504" lon="4.84604">
        <ele>178.46</ele>
        <time>2012-09-08T12:50:23Z</time>
      </trkpt>
      <trkpt lat="46.77551" lon="4.84659">
        <ele>178.46</ele>
        <time>2012-09-08T12:50:39Z</time>
      </trkpt>
      <trkpt lat="46.77596" lon="4.84718">
        <ele>178.46</ele>
        <time>2012-09-08T12:50:55Z</time>
      </trkpt>
      <trkpt lat="46.7763" lon="4.84775">
        <ele>178.46</ele>
        <time>2012-09-08T12:51:09Z</time>
      </trkpt>
      <trkpt lat="46.7767" lon="4.84846">
        <ele>178.46</ele>
        <time>2012-09-08T12:51:26Z</time>
      </trkpt>
      <trkpt lat="46.77711" lon="4.8492">
        <ele>178.94</ele>
        <time>2012-09-08T12:51:43Z</time>
      </trkpt>
      <trkpt lat="46.77743" lon="4.84975">
        <ele>178.46</ele>
        <time>2012-09-08T12:51:58Z</time>
      </trkpt>
      <trkpt lat="46.7778" lon="4.85048">
        <ele>179.9</ele>
        <time>2012-09-08T12:52:15Z</time>
      </trkpt>
      <trkpt lat="46.77795" lon="4.85089">
        <ele>180.87</ele>
        <time>2012-09-08T12:52:28Z</time>
      </trkpt>
      <trkpt lat="46.77793" lon="4.8509">
        <ele>180.87</ele>
        <time>2012-09-08T12:52:44Z</time>
      </trkpt>
      <trkpt lat="46.77793" lon="4.85091">
        <ele>180.87</ele>
        <time>2012-09-08T12:53:20Z</time>
      </trkpt>
      <trkpt lat="46.77794" lon="4.85093">
        <ele>180.38</ele>
        <time>2012-09-08T12:53:49Z</time>
      </trkpt>
      <trkpt lat="46.77794" lon="4.85096">
        <ele>180.38</ele>
        <time>2012-09-08T12:53:50Z</time>
      </trkpt>
      <trkpt lat="46.77796" lon="4.851">
        <ele>180.38</ele>
        <time>2012-09-08T12:53:51Z</time>
      </trkpt>
      <trkpt lat="46.77822" lon="4.85152">
        <ele>179.42</ele>
        <time>2012-09-08T12:54:01Z</time>
      </trkpt>
      <trkpt lat="46.77836" lon="4.85181">
        <ele>182.31</ele>
        <time>2012-09-08T12:54:11Z</time>
      </trkpt>
      <trkpt lat="46.77839" lon="4.85183">
        <ele>181.35</ele>
        <time>2012-09-08T12:54:13Z</time>
      </trkpt>
      <trkpt lat="46.77841" lon="4.85185">
        <ele>181.35</ele>
        <time>2012-09-08T12:54:14Z</time>
      </trkpt>
      <trkpt lat="46.77843" lon="4.85187">
        <ele>181.83</ele>
        <time>2012-09-08T12:54:15Z</time>
      </trkpt>
      <trkpt lat="46.77844" lon="4.8519">
        <ele>181.35</ele>
        <time>2012-09-08T12:54:16Z</time>
      </trkpt>
      <trkpt lat="46.77846" lon="4.85193">
        <ele>181.35</ele>
        <time>2012-09-08T12:54:17Z</time>
      </trkpt>
      <trkpt lat="46.77847" lon="4.85197">
        <ele>181.35</ele>
        <time>2012-09-08T12:54:18Z</time>
      </trkpt>
      <trkpt lat="46.77875" lon="4.85267">
        <ele>178.94</ele>
        <time>2012-09-08T12:54:34Z</time>
      </trkpt>
      <trkpt lat="46.77898" lon="4.85329">
        <ele>177.98</ele>
        <time>2012-09-08T12:54:48Z</time>
      </trkpt>
      <trkpt lat="46.77913" lon="4.85375">
        <ele>177.98</ele>
        <time>2012-09-08T12:55:01Z</time>
      </trkpt>
      <trkpt lat="46.77915" lon="4.85385">
        <ele>177.98</ele>
        <time>2012-09-08T12:55:16Z</time>
      </trkpt>
      <trkpt lat="46.77915" lon="4.85388">
        <ele>177.98</ele>
        <time>2012-09-08T12:55:45Z</time>
      </trkpt>
      <trkpt lat="46.77925" lon="4.85411">
        <ele>177.98</ele>
        <time>2012-09-08T12:55:58Z</time>
      </trkpt>
      <trkpt lat="46.7794" lon="4.85449">
        <ele>177.98</ele>
        <time>2012-09-08T12:56:10Z</time>
      </trkpt>
      <trkpt lat="46.77942" lon="4.85449">
        <ele>177.98</ele>
        <time>2012-09-08T12:56:11Z</time>
      </trkpt>
      <trkpt lat="46.77944" lon="4.8545">
        <ele>177.98</ele>
        <time>2012-09-08T12:56:13Z</time>
      </trkpt>
      <trkpt lat="46.77944" lon="4.85451">
        <ele>177.98</ele>
        <time>2012-09-08T12:56:14Z</time>
      </trkpt>
      <trkpt lat="46.77959" lon="4.85488">
        <ele>177.98</ele>
        <time>2012-09-08T12:56:25Z</time>
      </trkpt>
      <trkpt lat="46.77983" lon="4.85556">
        <ele>178.46</ele>
        <time>2012-09-08T12:56:41Z</time>
      </trkpt>
      <trkpt lat="46.78007" lon="4.85623">
        <ele>178.46</ele>
        <time>2012-09-08T12:56:55Z</time>
      </trkpt>
      <trkpt lat="46.78034" lon="4.85686">
        <ele>178.94</ele>
        <time>2012-09-08T12:57:08Z</time>
      </trkpt>
      <trkpt lat="46.78036" lon="4.85691">
        <ele>178.94</ele>
        <time>2012-09-08T12:57:09Z</time>
      </trkpt>
      <trkpt lat="46.78066" lon="4.85755">
        <ele>179.9</ele>
        <time>2012-09-08T12:57:23Z</time>
      </trkpt>
      <trkpt lat="46.78082" lon="4.85795">
        <ele>181.83</ele>
        <time>2012-09-08T12:57:35Z</time>
      </trkpt>
      <trkpt lat="46.7809" lon="4.85826">
        <ele>183.27</ele>
        <time>2012-09-08T12:57:48Z</time>
      </trkpt>
      <trkpt lat="46.78089" lon="4.85829">
        <ele>183.27</ele>
        <time>2012-09-08T12:57:59Z</time>
      </trkpt>
      <trkpt lat="46.78088" lon="4.85831">
        <ele>183.27</ele>
        <time>2012-09-08T12:58:00Z</time>
      </trkpt>
      <trkpt lat="46.78087" lon="4.85832">
        <ele>183.27</ele>
        <time>2012-09-08T12:58:01Z</time>
      </trkpt>
      <trkpt lat="46.78086" lon="4.85834">
        <ele>183.27</ele>
        <time>2012-09-08T12:58:02Z</time>
      </trkpt>
      <trkpt lat="46.78085" lon="4.85835">
        <ele>183.75</ele>
        <time>2012-09-08T12:58:03Z</time>
      </trkpt>
      <trkpt lat="46.78065" lon="4.85859">
        <ele>184.71</ele>
        <time>2012-09-08T12:58:22Z</time>
      </trkpt>
      <trkpt lat="46.78045" lon="4.85881">
        <ele>185.19</ele>
        <time>2012-09-08T12:58:40Z</time>
      </trkpt>
      <trkpt lat="46.78022" lon="4.85903">
        <ele>184.23</ele>
        <time>2012-09-08T12:59:00Z</time>
      </trkpt>
      <trkpt lat="46.78007" lon="4.85918">
        <ele>182.79</ele>
        <time>2012-09-08T12:59:19Z</time>
      </trkpt>
      <trkpt lat="46.78005" lon="4.85925">
        <ele>182.79</ele>
        <time>2012-09-08T12:59:26Z</time>
      </trkpt>
      <trkpt lat="46.78005" lon="4.85928">
        <ele>182.79</ele>
        <time>2012-09-08T12:59:27Z</time>
      </trkpt>
      <trkpt lat="46.78005" lon="4.85932">
        <ele>182.79</ele>
        <time>2012-09-08T12:59:28Z</time>
      </trkpt>
      <trkpt lat="46.78006" lon="4.85936">
        <ele>182.79</ele>
        <time>2012-09-08T12:59:29Z</time>
      </trkpt>
      <trkpt lat="46.78007" lon="4.8594">
        <ele>182.79</ele>
        <time>2012-09-08T12:59:30Z</time>
      </trkpt>
      <trkpt lat="46.78008" lon="4.85945">
        <ele>182.79</ele>
        <time>2012-09-08T12:59:31Z</time>
      </trkpt>
      <trkpt lat="46.78018" lon="4.86007">
        <ele>180.87</ele>
        <time>2012-09-08T12:59:40Z</time>
      </trkpt>
      <trkpt lat="46.78006" lon="4.86114">
        <ele>179.42</ele>
        <time>2012-09-08T12:59:53Z</time>
      </trkpt>
      <trkpt lat="46.78007" lon="4.86121">
        <ele>179.9</ele>
        <time>2012-09-08T12:59:54Z</time>
      </trkpt>
      <trkpt lat="46.78008" lon="4.86128">
        <ele>179.9</ele>
        <time>2012-09-08T12:59:55Z</time>
      </trkpt>
      <trkpt lat="46.78014" lon="4.86163">
        <ele>179.42</ele>
        <time>2012-09-08T13:00:00Z</time>
      </trkpt>
      <trkpt lat="46.78004" lon="4.86204">
        <ele>178.94</ele>
        <time>2012-09-08T13:00:09Z</time>
      </trkpt>
      <trkpt lat="46.77951" lon="4.86245">
        <ele>179.42</ele>
        <time>2012-09-08T13:00:23Z</time>
      </trkpt>
      <trkpt lat="46.77923" lon="4.86286">
        <ele>181.35</ele>
        <time>2012-09-08T13:00:37Z</time>
      </trkpt>
      <trkpt lat="46.77906" lon="4.86368">
        <ele>180.38</ele>
        <time>2012-09-08T13:00:55Z</time>
      </trkpt>
      <trkpt lat="46.77906" lon="4.86372">
        <ele>180.38</ele>
        <time>2012-09-08T13:00:56Z</time>
      </trkpt>
      <trkpt lat="46.77908" lon="4.86374">
        <ele>180.38</ele>
        <time>2012-09-08T13:00:57Z</time>
      </trkpt>
      <trkpt lat="46.77909" lon="4.86375">
        <ele>180.38</ele>
        <time>2012-09-08T13:00:58Z</time>
      </trkpt>
      <trkpt lat="46.77911" lon="4.86375">
        <ele>179.9</ele>
        <time>2012-09-08T13:00:59Z</time>
      </trkpt>
      <trkpt lat="46.77913" lon="4.86373">
        <ele>179.9</ele>
        <time>2012-09-08T13:01:00Z</time>
      </trkpt>
      <trkpt lat="46.77915" lon="4.86372">
        <ele>179.9</ele>
        <time>2012-09-08T13:01:01Z</time>
      </trkpt>
      <trkpt lat="46.77916" lon="4.86372">
        <ele>180.38</ele>
        <time>2012-09-08T13:01:02Z</time>
      </trkpt>
      <trkpt lat="46.77917" lon="4.86374">
        <ele>179.9</ele>
        <time>2012-09-08T13:01:03Z</time>
      </trkpt>
      <trkpt lat="46.77918" lon="4.86375">
        <ele>179.9</ele>
        <time>2012-09-08T13:01:04Z</time>
      </trkpt>
      <trkpt lat="46.7792" lon="4.86376">
        <ele>179.9</ele>
        <time>2012-09-08T13:01:05Z</time>
      </trkpt>
      <trkpt lat="46.77923" lon="4.86375">
        <ele>179.42</ele>
        <time>2012-09-08T13:01:06Z</time>
      </trkpt>
      <trkpt lat="46.7793" lon="4.86376">
        <ele>178.94</ele>
        <time>2012-09-08T13:01:08Z</time>
      </trkpt>
      <trkpt lat="46.77935" lon="4.86378">
        <ele>179.42</ele>
        <time>2012-09-08T13:01:09Z</time>
      </trkpt>
      <trkpt lat="46.7798" lon="4.86402">
        <ele>177.98</ele>
        <time>2012-09-08T13:01:22Z</time>
      </trkpt>
      <trkpt lat="46.78012" lon="4.86434">
        <ele>177.98</ele>
        <time>2012-09-08T13:01:33Z</time>
      </trkpt>
      <trkpt lat="46.78042" lon="4.8649">
        <ele>177.98</ele>
        <time>2012-09-08T13:01:44Z</time>
      </trkpt>
      <trkpt lat="46.78084" lon="4.86577">
        <ele>177.02</ele>
        <time>2012-09-08T13:02:00Z</time>
      </trkpt>
      <trkpt lat="46.78111" lon="4.86626">
        <ele>176.06</ele>
        <time>2012-09-08T13:02:10Z</time>
      </trkpt>
      <trkpt lat="46.78115" lon="4.86631">
        <ele>176.06</ele>
        <time>2012-09-08T13:02:11Z</time>
      </trkpt>
      <trkpt lat="46.7813" lon="4.8666">
        <ele>175.1</ele>
        <time>2012-09-08T13:02:17Z</time>
      </trkpt>
      <trkpt lat="46.78129" lon="4.86664">
        <ele>175.1</ele>
        <time>2012-09-08T13:02:18Z</time>
      </trkpt>
      <trkpt lat="46.78124" lon="4.86686">
        <ele>175.1</ele>
        <time>2012-09-08T13:02:23Z</time>
      </trkpt>
      <trkpt lat="46.78126" lon="4.8669">
        <ele>175.58</ele>
        <time>2012-09-08T13:02:24Z</time>
      </trkpt>
      <trkpt lat="46.78128" lon="4.86694">
        <ele>175.58</ele>
        <time>2012-09-08T13:02:25Z</time>
      </trkpt>
      <trkpt lat="46.7813" lon="4.86697">
        <ele>175.58</ele>
        <time>2012-09-08T13:02:26Z</time>
      </trkpt>
      <trkpt lat="46.78133" lon="4.867">
        <ele>175.58</ele>
        <time>2012-09-08T13:02:27Z</time>
      </trkpt>
      <trkpt lat="46.78136" lon="4.86702">
        <ele>175.58</ele>
        <time>2012-09-08T13:02:28Z</time>
      </trkpt>
      <trkpt lat="46.7814" lon="4.86704">
        <ele>175.58</ele>
        <time>2012-09-08T13:02:29Z</time>
      </trkpt>
      <trkpt lat="46.78155" lon="4.86713">
        <ele>175.1</ele>
        <time>2012-09-08T13:02:34Z</time>
      </trkpt>
      <trkpt lat="46.78158" lon="4.86714">
        <ele>175.1</ele>
        <time>2012-09-08T13:02:35Z</time>
      </trkpt>
      <trkpt lat="46.7816" lon="4.86715">
        <ele>175.58</ele>
        <time>2012-09-08T13:02:36Z</time>
      </trkpt>
      <trkpt lat="46.78163" lon="4.86718">
        <ele>175.1</ele>
        <time>2012-09-08T13:02:37Z</time>
      </trkpt>
      <trkpt lat="46.78164" lon="4.86721">
        <ele>175.1</ele>
        <time>2012-09-08T13:02:38Z</time>
      </trkpt>
      <trkpt lat="46.78166" lon="4.86724">
        <ele>175.1</ele>
        <time>2012-09-08T13:02:39Z</time>
      </trkpt>
      <trkpt lat="46.78188" lon="4.86762">
        <ele>177.02</ele>
        <time>2012-09-08T13:02:51Z</time>
      </trkpt>
      <trkpt lat="46.78217" lon="4.86817">
        <ele>177.5</ele>
        <time>2012-09-08T13:03:05Z</time>
      </trkpt>
      <trkpt lat="46.78227" lon="4.86835">
        <ele>177.98</ele>
        <time>2012-09-08T13:03:16Z</time>
      </trkpt>
      <trkpt lat="46.78228" lon="4.86837">
        <ele>177.98</ele>
        <time>2012-09-08T13:03:22Z</time>
      </trkpt>
      <trkpt lat="46.78228" lon="4.86838">
        <ele>177.98</ele>
        <time>2012-09-08T13:03:23Z</time>
      </trkpt>
      <trkpt lat="46.78229" lon="4.8684">
        <ele>177.98</ele>
        <time>2012-09-08T13:03:24Z</time>
      </trkpt>
      <trkpt lat="46.7823" lon="4.86842">
        <ele>177.98</ele>
        <time>2012-09-08T13:03:25Z</time>
      </trkpt>
      <trkpt lat="46.78232" lon="4.86844">
        <ele>177.98</ele>
        <time>2012-09-08T13:03:26Z</time>
      </trkpt>
      <trkpt lat="46.78234" lon="4.86846">
        <ele>177.98</ele>
        <time>2012-09-08T13:03:27Z</time>
      </trkpt>
      <trkpt lat="46.78237" lon="4.86849">
        <ele>177.5</ele>
        <time>2012-09-08T13:03:28Z</time>
      </trkpt>
      <trkpt lat="46.78244" lon="4.86857">
        <ele>177.02</ele>
        <time>2012-09-08T13:03:30Z</time>
      </trkpt>
      <trkpt lat="46.78248" lon="4.86862">
        <ele>177.02</ele>
        <time>2012-09-08T13:03:31Z</time>
      </trkpt>
      <trkpt lat="46.78273" lon="4.86898">
        <ele>175.58</ele>
        <time>2012-09-08T13:03:37Z</time>
      </trkpt>
      <trkpt lat="46.7828" lon="4.8691">
        <ele>175.1</ele>
        <time>2012-09-08T13:03:39Z</time>
      </trkpt>
      <trkpt lat="46.78311" lon="4.86999">
        <ele>176.54</ele>
        <time>2012-09-08T13:03:54Z</time>
      </trkpt>
      <trkpt lat="46.78319" lon="4.87019">
        <ele>176.54</ele>
        <time>2012-09-08T13:03:58Z</time>
      </trkpt>
      <trkpt lat="46.78322" lon="4.87024">
        <ele>176.54</ele>
        <time>2012-09-08T13:03:59Z</time>
      </trkpt>
      <trkpt lat="46.78334" lon="4.87043">
        <ele>176.54</ele>
        <time>2012-09-08T13:04:03Z</time>
      </trkpt>
      <trkpt lat="46.78368" lon="4.87106">
        <ele>176.54</ele>
        <time>2012-09-08T13:04:17Z</time>
      </trkpt>
      <trkpt lat="46.78372" lon="4.87116">
        <ele>176.54</ele>
        <time>2012-09-08T13:04:19Z</time>
      </trkpt>
      <trkpt lat="46.78416" lon="4.87194">
        <ele>177.5</ele>
        <time>2012-09-08T13:04:36Z</time>
      </trkpt>
      <trkpt lat="46.78425" lon="4.87216">
        <ele>178.46</ele>
        <time>2012-09-08T13:04:45Z</time>
      </trkpt>
      <trkpt lat="46.78423" lon="4.87219">
        <ele>178.46</ele>
        <time>2012-09-08T13:04:47Z</time>
      </trkpt>
      <trkpt lat="46.78422" lon="4.87225">
        <ele>178.46</ele>
        <time>2012-09-08T13:04:50Z</time>
      </trkpt>
      <trkpt lat="46.78423" lon="4.87228">
        <ele>178.46</ele>
        <time>2012-09-08T13:04:51Z</time>
      </trkpt>
      <trkpt lat="46.78424" lon="4.87231">
        <ele>178.46</ele>
        <time>2012-09-08T13:04:52Z</time>
      </trkpt>
      <trkpt lat="46.78426" lon="4.87233">
        <ele>178.94</ele>
        <time>2012-09-08T13:04:53Z</time>
      </trkpt>
      <trkpt lat="46.78427" lon="4.87235">
        <ele>178.94</ele>
        <time>2012-09-08T13:04:54Z</time>
      </trkpt>
      <trkpt lat="46.78428" lon="4.87238">
        <ele>178.94</ele>
        <time>2012-09-08T13:04:55Z</time>
      </trkpt>
      <trkpt lat="46.78428" lon="4.8724">
        <ele>178.94</ele>
        <time>2012-09-08T13:04:56Z</time>
      </trkpt>
      <trkpt lat="46.78429" lon="4.87242">
        <ele>178.94</ele>
        <time>2012-09-08T13:04:57Z</time>
      </trkpt>
      <trkpt lat="46.78429" lon="4.87243">
        <ele>178.94</ele>
        <time>2012-09-08T13:04:58Z</time>
      </trkpt>
      <trkpt lat="46.78428" lon="4.87247">
        <ele>178.94</ele>
        <time>2012-09-08T13:05:09Z</time>
      </trkpt>
      <trkpt lat="46.78426" lon="4.87248">
        <ele>178.94</ele>
        <time>2012-09-08T13:05:57Z</time>
      </trkpt>
      <trkpt lat="46.78427" lon="4.87248">
        <ele>179.42</ele>
        <time>2012-09-08T13:06:46Z</time>
      </trkpt>
      <trkpt lat="46.78426" lon="4.87245">
        <ele>179.42</ele>
        <time>2012-09-08T13:07:34Z</time>
      </trkpt>
      <trkpt lat="46.78425" lon="4.87245">
        <ele>179.42</ele>
        <time>2012-09-08T13:08:20Z</time>
      </trkpt>
      <trkpt lat="46.78425" lon="4.87245">
        <ele>179.42</ele>
        <time>2012-09-08T13:09:04Z</time>
      </trkpt>
      <trkpt lat="46.78426" lon="4.87246">
        <ele>178.94</ele>
        <time>2012-09-08T13:09:47Z</time>
      </trkpt>
      <trkpt lat="46.78427" lon="4.87241">
        <ele>179.42</ele>
        <time>2012-09-08T13:10:04Z</time>
      </trkpt>
      <trkpt lat="46.78428" lon="4.8724">
        <ele>179.42</ele>
        <time>2012-09-08T13:10:21Z</time>
      </trkpt>
      <trkpt lat="46.78427" lon="4.87238">
        <ele>178.94</ele>
        <time>2012-09-08T13:10:26Z</time>
      </trkpt>
      <trkpt lat="46.78426" lon="4.87236">
        <ele>178.94</ele>
        <time>2012-09-08T13:10:27Z</time>
      </trkpt>
      <trkpt lat="46.78426" lon="4.87233">
        <ele>179.42</ele>
        <time>2012-09-08T13:10:28Z</time>
      </trkpt>
      <trkpt lat="46.78426" lon="4.87231">
        <ele>178.94</ele>
        <time>2012-09-08T13:10:29Z</time>
      </trkpt>
      <trkpt lat="46.78428" lon="4.87229">
        <ele>178.94</ele>
        <time>2012-09-08T13:10:30Z</time>
      </trkpt>
      <trkpt lat="46.78429" lon="4.87228">
        <ele>178.46</ele>
        <time>2012-09-08T13:10:31Z</time>
      </trkpt>
      <trkpt lat="46.78431" lon="4.8723">
        <ele>178.46</ele>
        <time>2012-09-08T13:10:32Z</time>
      </trkpt>
      <trkpt lat="46.78432" lon="4.87232">
        <ele>178.46</ele>
        <time>2012-09-08T13:10:33Z</time>
      </trkpt>
      <trkpt lat="46.78434" lon="4.87235">
        <ele>178.46</ele>
        <time>2012-09-08T13:10:34Z</time>
      </trkpt>
      <trkpt lat="46.78435" lon="4.87238">
        <ele>178.46</ele>
        <time>2012-09-08T13:10:35Z</time>
      </trkpt>
      <trkpt lat="46.78466" lon="4.87298">
        <ele>177.5</ele>
        <time>2012-09-08T13:10:49Z</time>
      </trkpt>
      <trkpt lat="46.78493" lon="4.87346">
        <ele>177.98</ele>
        <time>2012-09-08T13:11:01Z</time>
      </trkpt>
      <trkpt lat="46.7853" lon="4.87417">
        <ele>177.5</ele>
        <time>2012-09-08T13:11:18Z</time>
      </trkpt>
      <trkpt lat="46.78531" lon="4.87421">
        <ele>177.98</ele>
        <time>2012-09-08T13:11:19Z</time>
      </trkpt>
      <trkpt lat="46.78531" lon="4.87426">
        <ele>177.98</ele>
        <time>2012-09-08T13:11:20Z</time>
      </trkpt>
      <trkpt lat="46.7853" lon="4.8743">
        <ele>177.5</ele>
        <time>2012-09-08T13:11:21Z</time>
      </trkpt>
      <trkpt lat="46.78528" lon="4.87433">
        <ele>177.98</ele>
        <time>2012-09-08T13:11:22Z</time>
      </trkpt>
      <trkpt lat="46.78527" lon="4.87437">
        <ele>177.98</ele>
        <time>2012-09-08T13:11:23Z</time>
      </trkpt>
      <trkpt lat="46.78524" lon="4.8744">
        <ele>177.98</ele>
        <time>2012-09-08T13:11:24Z</time>
      </trkpt>
      <trkpt lat="46.78522" lon="4.87443">
        <ele>177.98</ele>
        <time>2012-09-08T13:11:25Z</time>
      </trkpt>
      <trkpt lat="46.78521" lon="4.87472">
        <ele>177.98</ele>
        <time>2012-09-08T13:11:35Z</time>
      </trkpt>
      <trkpt lat="46.78523" lon="4.87471">
        <ele>177.5</ele>
        <time>2012-09-08T13:11:36Z</time>
      </trkpt>
      <trkpt lat="46.78523" lon="4.87469">
        <ele>177.5</ele>
        <time>2012-09-08T13:11:37Z</time>
      </trkpt>
      <trkpt lat="46.78522" lon="4.87468">
        <ele>177.5</ele>
        <time>2012-09-08T13:11:38Z</time>
      </trkpt>
      <trkpt lat="46.78521" lon="4.87466">
        <ele>177.5</ele>
        <time>2012-09-08T13:11:39Z</time>
      </trkpt>
      <trkpt lat="46.7852" lon="4.87464">
        <ele>177.98</ele>
        <time>2012-09-08T13:11:40Z</time>
      </trkpt>
      <trkpt lat="46.78519" lon="4.87461">
        <ele>177.5</ele>
        <time>2012-09-08T13:11:41Z</time>
      </trkpt>
      <trkpt lat="46.78518" lon="4.87457">
        <ele>177.98</ele>
        <time>2012-09-08T13:11:42Z</time>
      </trkpt>
      <trkpt lat="46.78518" lon="4.87453">
        <ele>177.98</ele>
        <time>2012-09-08T13:11:43Z</time>
      </trkpt>
      <trkpt lat="46.78519" lon="4.8745">
        <ele>177.98</ele>
        <time>2012-09-08T13:11:44Z</time>
      </trkpt>
      <trkpt lat="46.78521" lon="4.87447">
        <ele>177.98</ele>
        <time>2012-09-08T13:11:45Z</time>
      </trkpt>
      <trkpt lat="46.78523" lon="4.87444">
        <ele>177.98</ele>
        <time>2012-09-08T13:11:46Z</time>
      </trkpt>
      <trkpt lat="46.78525" lon="4.87441">
        <ele>177.98</ele>
        <time>2012-09-08T13:11:47Z</time>
      </trkpt>
      <trkpt lat="46.78534" lon="4.8743">
        <ele>177.5</ele>
        <time>2012-09-08T13:11:51Z</time>
      </trkpt>
      <trkpt lat="46.78537" lon="4.87432">
        <ele>177.5</ele>
        <time>2012-09-08T13:11:52Z</time>
      </trkpt>
      <trkpt lat="46.78539" lon="4.87435">
        <ele>177.5</ele>
        <time>2012-09-08T13:11:53Z</time>
      </trkpt>
      <trkpt lat="46.78541" lon="4.87439">
        <ele>177.5</ele>
        <time>2012-09-08T13:11:54Z</time>
      </trkpt>
      <trkpt lat="46.78542" lon="4.87443">
        <ele>177.5</ele>
        <time>2012-09-08T13:11:55Z</time>
      </trkpt>
      <trkpt lat="46.78564" lon="4.87491">
        <ele>177.5</ele>
        <time>2012-09-08T13:12:08Z</time>
      </trkpt>
      <trkpt lat="46.78564" lon="4.87494">
        <ele>177.5</ele>
        <time>2012-09-08T13:12:09Z</time>
      </trkpt>
      <trkpt lat="46.78562" lon="4.87496">
        <ele>177.5</ele>
        <time>2012-09-08T13:12:10Z</time>
      </trkpt>
      <trkpt lat="46.78562" lon="4.87497">
        <ele>177.5</ele>
        <time>2012-09-08T13:12:21Z</time>
      </trkpt>
      <trkpt lat="46.78573" lon="4.87505">
        <ele>177.5</ele>
        <time>2012-09-08T13:12:27Z</time>
      </trkpt>
      <trkpt lat="46.78593" lon="4.87547">
        <ele>177.02</ele>
        <time>2012-09-08T13:12:40Z</time>
      </trkpt>
      <trkpt lat="46.78592" lon="4.8754">
        <ele>177.02</ele>
        <time>2012-09-08T13:12:47Z</time>
      </trkpt>
      <trkpt lat="46.78584" lon="4.87546">
        <ele>177.5</ele>
        <time>2012-09-08T13:12:56Z</time>
      </trkpt>
      <trkpt lat="46.78584" lon="4.87545">
        <ele>174.62</ele>
        <time>2012-09-08T13:13:11Z</time>
      </trkpt>
      <trkpt lat="46.78584" lon="4.87545">
        <ele>179.42</ele>
        <time>2012-09-08T13:13:12Z</time>
      </trkpt>
      <trkpt lat="46.78584" lon="4.87545">
        <ele>177.5</ele>
        <time>2012-09-08T13:13:15Z</time>
      </trkpt>
    </trkseg>
  </trk>
</gpx>